Time,TemperatureF,DewpointF,PressureIn,WindDirection,WindDirectionDegrees,WindSpeedMPH,WindSpeedGustMPH,Humidity,HourlyPrecipIn,Conditions,Clouds,dailyrainin,SoftwareType,DateUTC
2013-10-20 00:00:00,54.5,53.2,29.76,NNE,21,0.0,79.7,95,0.13,,,0.00,VWS V14.01,2013-10-20 04:00:00,
2013-10-20 00:01:00,55.2,53.5,29.76,NNE,21,0.0,79.7,94,0.13,,,0.13,VWS V14.01,2013-10-20 04:01:00,
2013-10-20 00:02:00,55.2,53.5,29.76,NNE,21,0.0,79.7,94,0.13,,,0.13,VWS V14.01,2013-10-20 04:02:00,
2013-10-20 00:03:00,55.2,53.6,29.76,NNE,21,0.0,79.7,94,0.13,,,0.13,VWS V14.01,2013-10-20 04:03:00,
2013-10-20 00:04:00,55.1,53.5,29.76,NNE,21,0.0,79.7,94,0.13,,,0.13,VWS V14.01,2013-10-20 04:04:00,
2013-10-20 00:05:00,54.3,53.0,29.76,NNE,21,0.0,79.7,95,0.13,,,0.00,VWS V14.01,2013-10-20 04:05:00,
2013-10-20 00:06:00,55.1,53.6,29.76,NNE,21,0.0,79.7,95,0.13,,,0.13,VWS V14.01,2013-10-20 04:06:00,
2013-10-20 00:07:00,54.3,52.9,29.76,NNE,21,0.0,79.7,95,0.13,,,0.00,VWS V14.01,2013-10-20 04:07:00,
2013-10-20 00:09:00,54.2,52.8,29.76,NNE,21,0.0,79.7,95,0.13,,,0.00,VWS V14.01,2013-10-20 04:09:00,
2013-10-20 00:10:00,54.2,52.8,29.76,NNE,21,0.0,79.7,95,0.13,,,0.00,VWS V14.01,2013-10-20 04:10:00,
2013-10-20 00:11:00,54.2,52.9,29.76,NNE,21,0.0,79.7,95,0.13,,,0.00,VWS V14.01,2013-10-20 04:11:00,
2013-10-20 00:12:00,55.0,53.5,29.76,NNE,21,0.0,79.7,95,0.13,,,0.13,VWS V14.01,2013-10-20 04:12:00,
2013-10-20 00:13:00,54.2,52.9,29.77,NNE,21,0.0,79.7,95,0.13,,,0.00,VWS V14.01,2013-10-20 04:13:00,
2013-10-20 00:14:00,54.1,52.8,29.77,NNE,21,0.0,79.7,95,0.13,,,0.00,VWS V14.01,2013-10-20 04:14:00,
2013-10-20 00:15:00,55.1,53.6,29.76,NNE,21,0.0,79.7,95,0.13,,,0.13,VWS V14.01,2013-10-20 04:15:00,
2013-10-20 00:16:00,54.1,52.8,29.77,NNE,21,0.0,79.7,95,0.13,,,0.00,VWS V14.01,2013-10-20 04:16:00,
2013-10-20 00:17:00,54.0,52.7,29.77,NNE,21,0.0,79.7,95,0.13,,,0.00,VWS V14.01,2013-10-20 04:17:00,
2013-10-20 00:18:00,54.0,52.7,29.77,NNE,21,0.0,79.7,95,0.13,,,0.00,VWS V14.01,2013-10-20 04:18:00,
2013-10-20 00:20:00,54.0,52.7,29.77,NNE,21,0.0,79.7,95,0.13,,,0.00,VWS V14.01,2013-10-20 04:20:00,
2013-10-20 00:21:00,55.0,53.5,29.76,NNE,21,0.0,79.7,95,0.13,,,0.13,VWS V14.01,2013-10-20 04:21:00,
2013-10-20 00:22:00,53.9,52.6,29.77,NNE,21,0.0,79.7,95,0.13,,,0.00,VWS V14.01,2013-10-20 04:22:00,
2013-10-20 00:23:00,54.0,52.7,29.76,NNE,21,0.0,79.7,95,0.13,,,0.00,VWS V14.01,2013-10-20 04:23:00,
2013-10-20 00:24:00,53.8,52.5,29.77,NNE,21,0.0,79.7,95,0.13,,,0.00,VWS V14.01,2013-10-20 04:24:00,
2013-10-20 00:25:00,53.8,52.5,29.77,NNE,21,0.0,79.7,95,0.13,,,0.00,VWS V14.01,2013-10-20 04:25:00,
2013-10-20 00:26:00,53.8,52.5,29.77,NNE,21,0.0,79.7,95,0.13,,,0.00,VWS V14.01,2013-10-20 04:26:00,
2013-10-20 00:27:00,55.2,53.7,29.76,NNE,21,0.0,79.7,95,0.13,,,0.13,VWS V14.01,2013-10-20 04:27:00,
2013-10-20 00:28:00,53.7,52.5,29.76,NNE,21,0.0,79.7,96,0.13,,,0.00,VWS V14.01,2013-10-20 04:28:00,
2013-10-20 00:29:00,53.7,52.5,29.76,NNE,21,0.0,79.7,96,0.13,,,0.00,VWS V14.01,2013-10-20 04:29:00,
2013-10-20 00:31:00,53.7,52.5,29.76,NNE,21,0.0,79.7,96,0.13,,,0.00,VWS V14.01,2013-10-20 04:31:00,
2013-10-20 00:32:00,55.0,53.5,29.76,NNE,21,0.0,79.7,95,0.13,,,0.13,VWS V14.01,2013-10-20 04:32:00,
2013-10-20 00:33:00,53.6,52.4,29.77,NNE,21,0.0,79.7,96,0.13,,,0.00,VWS V14.01,2013-10-20 04:33:00,
2013-10-20 00:34:00,53.5,52.3,29.76,NNE,21,0.0,79.7,96,0.13,,,0.00,VWS V14.01,2013-10-20 04:34:00,
2013-10-20 00:35:00,53.4,52.2,29.76,NNE,21,0.0,79.7,96,0.13,,,0.00,VWS V14.01,2013-10-20 04:35:00,
2013-10-20 00:36:00,53.4,52.2,29.76,NNE,21,0.0,79.7,96,0.13,,,0.00,VWS V14.01,2013-10-20 04:36:00,
2013-10-20 00:37:00,53.5,52.4,29.77,NNE,21,0.0,79.7,96,0.13,,,0.00,VWS V14.01,2013-10-20 04:37:00,
2013-10-20 00:38:00,55.0,53.5,29.76,NNE,21,0.0,79.7,95,0.13,,,0.13,VWS V14.01,2013-10-20 04:38:00,
2013-10-20 00:39:00,53.3,52.2,29.76,NNE,21,0.0,79.7,96,0.13,,,0.00,VWS V14.01,2013-10-20 04:39:00,
2013-10-20 00:40:00,53.2,52.1,29.76,NNE,21,0.0,79.7,96,0.13,,,0.00,VWS V14.01,2013-10-20 04:40:00,
2013-10-20 00:41:00,53.2,52.1,29.77,NNE,21,0.0,79.7,96,0.13,,,0.00,VWS V14.01,2013-10-20 04:41:00,
2013-10-20 00:43:00,54.8,53.5,29.76,NNE,21,0.0,79.7,95,0.13,,,0.13,VWS V14.01,2013-10-20 04:43:00,
2013-10-20 00:44:00,53.2,52.1,29.77,NNE,21,0.0,79.7,96,0.13,,,0.00,VWS V14.01,2013-10-20 04:44:00,
2013-10-20 00:45:00,53.0,51.9,29.77,NNE,21,0.0,79.7,96,0.13,,,0.00,VWS V14.01,2013-10-20 04:45:00,
2013-10-20 00:46:00,53.1,52.0,29.77,NNE,21,0.0,79.7,96,0.13,,,0.00,VWS V14.01,2013-10-20 04:46:00,
2013-10-20 00:47:00,53.2,52.2,29.77,NNE,21,0.0,79.7,96,0.13,,,0.00,VWS V14.01,2013-10-20 04:47:00,
2013-10-20 00:48:00,53.0,52.0,29.77,NNE,21,0.0,79.7,96,0.13,,,0.00,VWS V14.01,2013-10-20 04:48:00,
2013-10-20 00:49:00,54.7,53.4,29.76,NNE,21,0.0,79.7,95,0.13,,,0.13,VWS V14.01,2013-10-20 04:49:00,
2013-10-20 00:50:00,53.1,52.0,29.76,NNE,21,0.0,79.7,96,0.13,,,0.00,VWS V14.01,2013-10-20 04:50:00,
2013-10-20 00:51:00,53.0,51.9,29.76,NNE,21,0.0,79.7,96,0.13,,,0.00,VWS V14.01,2013-10-20 04:51:00,
2013-10-20 00:52:00,53.0,51.9,29.77,NNE,21,0.0,79.7,96,0.13,,,0.00,VWS V14.01,2013-10-20 04:52:00,
2013-10-20 00:53:00,52.9,51.8,29.76,NNE,21,0.0,79.7,96,0.13,,,0.00,VWS V14.01,2013-10-20 04:53:00,
2013-10-20 00:54:00,54.5,53.2,29.76,NNE,21,0.0,79.7,95,0.13,,,0.13,VWS V14.01,2013-10-20 04:54:00,
2013-10-20 00:55:00,52.8,51.7,29.77,NNE,21,0.0,79.7,96,0.13,,,0.00,VWS V14.01,2013-10-20 04:55:00,
2013-10-20 00:56:00,52.8,51.7,29.76,NNE,21,0.0,79.7,96,0.13,,,0.00,VWS V14.01,2013-10-20 04:56:00,
2013-10-20 00:57:00,52.7,51.5,29.76,NNE,21,0.0,79.7,96,0.13,,,0.00,VWS V14.01,2013-10-20 04:57:00,
2013-10-20 00:58:00,52.9,51.7,29.76,NNE,21,0.0,79.7,96,0.13,,,0.00,VWS V14.01,2013-10-20 04:58:00,
2013-10-20 01:00:00,52.8,51.6,29.76,NNE,21,0.0,79.7,96,0.13,,,0.00,VWS V14.01,2013-10-20 05:00:00,
2013-10-20 01:01:00,52.7,51.5,29.77,NNE,21,0.0,79.7,96,0.13,,,0.00,VWS V14.01,2013-10-20 05:01:00,
2013-10-20 01:02:00,52.7,51.5,29.77,NNE,21,0.0,79.7,96,0.13,,,0.00,VWS V14.01,2013-10-20 05:02:00,
2013-10-20 01:03:00,52.7,51.5,29.77,NNE,21,0.0,79.7,96,0.13,,,0.00,VWS V14.01,2013-10-20 05:03:00,
2013-10-20 01:04:00,52.6,51.4,29.77,NNE,21,0.0,79.7,96,0.13,,,0.00,VWS V14.01,2013-10-20 05:04:00,
2013-10-20 01:05:00,52.6,51.4,29.77,NNE,21,0.0,79.7,96,0.13,,,0.00,VWS V14.01,2013-10-20 05:05:00,
2013-10-20 01:06:00,52.6,51.4,29.77,NNE,21,0.0,79.7,96,0.13,,,0.00,VWS V14.01,2013-10-20 05:06:00,
2013-10-20 01:07:00,52.5,51.2,29.77,NNE,21,0.0,79.7,96,0.13,,,0.00,VWS V14.01,2013-10-20 05:07:00,
2013-10-20 01:08:00,52.4,51.2,29.77,NNE,21,0.0,79.7,96,0.13,,,0.00,VWS V14.01,2013-10-20 05:08:00,
2013-10-20 01:09:00,52.4,51.2,29.77,NNE,21,0.0,79.7,96,0.13,,,0.00,VWS V14.01,2013-10-20 05:09:00,
2013-10-20 01:10:00,52.4,51.2,29.77,NNE,21,0.0,79.7,96,0.13,,,0.00,VWS V14.01,2013-10-20 05:10:00,
2013-10-20 01:11:00,52.4,51.2,29.77,NNE,21,0.0,79.7,96,0.13,,,0.00,VWS V14.01,2013-10-20 05:11:00,
2013-10-20 01:12:00,52.4,51.2,29.77,NNE,21,0.0,79.7,96,0.13,,,0.00,VWS V14.01,2013-10-20 05:12:00,
2013-10-20 01:13:00,52.3,51.1,29.77,NNE,21,0.0,79.7,96,0.13,,,0.00,VWS V14.01,2013-10-20 05:13:00,
2013-10-20 01:14:00,52.3,51.1,29.77,NNE,21,0.0,79.7,96,0.13,,,0.00,VWS V14.01,2013-10-20 05:14:00,
2013-10-20 01:15:00,52.3,51.1,29.77,NNE,21,0.0,79.7,96,0.13,,,0.00,VWS V14.01,2013-10-20 05:15:00,
2013-10-20 01:17:00,52.4,51.2,29.77,NNE,21,0.0,79.7,96,0.13,,,0.00,VWS V14.01,2013-10-20 05:17:00,
2013-10-20 01:18:00,52.3,51.1,29.77,NNE,21,0.0,79.7,96,0.13,,,0.00,VWS V14.01,2013-10-20 05:18:00,
2013-10-20 01:19:00,52.1,50.9,29.77,NNE,21,0.0,79.7,96,0.13,,,0.00,VWS V14.01,2013-10-20 05:19:00,
2013-10-20 01:20:00,52.3,51.1,29.77,NNE,21,0.0,79.7,96,0.13,,,0.00,VWS V14.01,2013-10-20 05:20:00,
2013-10-20 01:21:00,52.2,51.0,29.77,NNE,21,0.0,79.7,96,0.13,,,0.00,VWS V14.01,2013-10-20 05:21:00,
2013-10-20 01:22:00,52.2,51.0,29.77,NNE,21,0.0,79.7,96,0.13,,,0.00,VWS V14.01,2013-10-20 05:22:00,
2013-10-20 01:23:00,52.2,51.0,29.77,NNE,21,0.0,79.7,96,0.13,,,0.00,VWS V14.01,2013-10-20 05:23:00,
2013-10-20 01:24:00,52.0,50.8,29.77,NNE,21,0.0,79.7,96,0.13,,,0.00,VWS V14.01,2013-10-20 05:24:00,
2013-10-20 01:26:00,52.0,50.8,29.77,NNE,21,0.0,79.7,96,0.13,,,0.00,VWS V14.01,2013-10-20 05:26:00,
2013-10-20 01:28:00,51.9,50.7,29.77,NNE,21,0.0,79.7,96,0.13,,,0.00,VWS V14.01,2013-10-20 05:28:00,
2013-10-20 01:30:00,52.0,50.8,29.77,NNE,21,0.0,79.7,96,0.13,,,0.00,VWS V14.01,2013-10-20 05:30:00,
2013-10-20 01:31:00,51.9,50.7,29.77,NNE,21,0.0,79.7,96,0.14,,,0.01,VWS V14.01,2013-10-20 05:31:00,
2013-10-20 01:32:00,51.8,50.6,29.77,NNE,21,0.0,79.7,96,0.14,,,0.01,VWS V14.01,2013-10-20 05:32:00,
2013-10-20 01:33:00,51.8,50.6,29.77,NNE,21,0.0,79.7,96,0.14,,,0.01,VWS V14.01,2013-10-20 05:33:00,
2013-10-20 01:34:00,51.7,50.5,29.77,NNE,21,0.0,79.7,96,0.14,,,0.01,VWS V14.01,2013-10-20 05:34:00,
2013-10-20 01:35:00,51.9,50.7,29.77,NNE,21,0.0,79.7,96,0.14,,,0.01,VWS V14.01,2013-10-20 05:35:00,
2013-10-20 01:38:00,51.8,50.6,29.77,NNE,21,0.0,79.7,96,0.14,,,0.01,VWS V14.01,2013-10-20 05:38:00,
2013-10-20 01:39:00,51.7,50.5,29.77,NNE,21,0.0,79.7,96,0.14,,,0.01,VWS V14.01,2013-10-20 05:39:00,
2013-10-20 01:40:00,51.7,50.5,29.77,NNE,21,0.0,79.7,96,0.14,,,0.01,VWS V14.01,2013-10-20 05:40:00,
2013-10-20 01:43:00,51.8,50.6,29.77,NNE,21,0.0,79.7,96,0.14,,,0.01,VWS V14.01,2013-10-20 05:43:00,
2013-10-20 01:46:00,51.5,50.3,29.77,NNE,21,0.0,79.7,96,0.14,,,0.01,VWS V14.01,2013-10-20 05:46:00,
2013-10-20 01:48:00,51.5,50.3,29.77,NNE,21,0.0,79.7,96,0.14,,,0.01,VWS V14.01,2013-10-20 05:48:00,
2013-10-20 01:50:00,51.3,50.1,29.77,NNE,21,0.0,79.7,96,0.14,,,0.01,VWS V14.01,2013-10-20 05:50:00,
2013-10-20 01:54:00,51.5,50.2,29.77,NNE,21,0.0,79.7,95,0.14,,,0.01,VWS V14.01,2013-10-20 05:54:00,
2013-10-20 01:58:00,51.3,50.0,29.78,NNE,21,0.0,79.7,95,0.14,,,0.01,VWS V14.01,2013-10-20 05:58:00,
2013-10-20 01:59:00,51.3,50.0,29.78,NNE,21,0.0,79.7,95,0.14,,,0.01,VWS V14.01,2013-10-20 05:59:00,
2013-10-20 02:01:00,51.1,49.7,29.78,NNE,21,0.0,79.7,95,0.14,,,0.01,VWS V14.01,2013-10-20 06:01:00,
2013-10-20 02:04:00,51.1,49.8,29.78,NNE,21,0.0,79.7,95,0.14,,,0.01,VWS V14.01,2013-10-20 06:04:00,
2013-10-20 02:06:00,50.9,49.5,29.78,NNE,21,0.0,79.7,95,0.14,,,0.01,VWS V14.01,2013-10-20 06:06:00,
2013-10-20 02:07:00,50.9,49.5,29.78,NNE,21,0.0,79.7,95,0.14,,,0.01,VWS V14.01,2013-10-20 06:07:00,
2013-10-20 02:09:00,50.8,49.5,29.78,NNE,21,0.0,79.7,95,0.14,,,0.01,VWS V14.01,2013-10-20 06:09:00,
2013-10-20 02:10:00,50.8,49.5,29.78,NNE,21,0.0,79.7,95,0.14,,,0.01,VWS V14.01,2013-10-20 06:10:00,
2013-10-20 02:12:00,50.8,49.5,29.78,NNE,21,0.0,79.7,95,0.14,,,0.01,VWS V14.01,2013-10-20 06:12:00,
2013-10-20 02:14:00,50.9,49.7,29.78,NNE,21,0.0,79.7,96,0.14,,,0.01,VWS V14.01,2013-10-20 06:14:00,
2013-10-20 02:17:00,50.8,49.7,29.78,NNE,21,0.0,79.7,96,0.14,,,0.01,VWS V14.01,2013-10-20 06:17:00,
2013-10-20 02:22:00,52.2,51.0,29.77,NNE,21,0.0,79.7,96,0.13,,,0.00,VWS V14.01,2013-10-20 06:22:00,
2013-10-20 02:23:00,50.6,49.5,29.78,NNE,21,0.0,79.7,96,0.14,,,0.01,VWS V14.01,2013-10-20 06:23:00,
2013-10-20 02:32:00,50.7,49.5,29.78,NNE,21,0.0,79.7,96,0.14,,,0.01,VWS V14.01,2013-10-20 06:32:00,
2013-10-20 02:33:00,51.9,50.7,29.77,NNE,21,0.0,79.7,96,0.14,,,0.01,VWS V14.01,2013-10-20 06:33:00,
2013-10-20 02:39:00,51.7,50.5,29.77,NNE,21,0.0,79.7,96,0.14,,,0.01,VWS V14.01,2013-10-20 06:39:00,
2013-10-20 02:42:00,50.4,49.2,29.78,NNE,21,0.0,79.7,96,0.14,,,0.01,VWS V14.01,2013-10-20 06:42:00,
2013-10-20 02:45:00,51.5,50.3,29.77,NNE,21,0.0,79.7,96,0.14,,,0.01,VWS V14.01,2013-10-20 06:45:00,
2013-10-20 02:46:00,50.4,49.2,29.78,NNE,21,0.0,79.7,96,0.14,,,0.01,VWS V14.01,2013-10-20 06:46:00,
2013-10-20 02:47:00,50.4,49.2,29.79,NNE,21,0.0,79.7,96,0.14,,,0.01,VWS V14.01,2013-10-20 06:47:00,
2013-10-20 02:51:00,51.3,50.0,29.77,NNE,21,0.0,79.7,95,0.14,,,0.01,VWS V14.01,2013-10-20 06:51:00,
2013-10-20 02:52:00,50.3,49.0,29.79,NNE,21,0.0,79.7,95,0.14,,,0.01,VWS V14.01,2013-10-20 06:52:00,
2013-10-20 02:57:00,51.1,49.8,29.78,NNE,21,0.0,79.7,95,0.14,,,0.01,VWS V14.01,2013-10-20 06:57:00,
2013-10-20 03:00:00,50.2,49.0,29.79,NNE,21,0.0,79.7,96,0.14,,,0.01,VWS V14.01,2013-10-20 07:00:00,
2013-10-20 03:04:00,51.1,49.8,29.78,NNE,21,0.0,79.7,95,0.14,,,0.01,VWS V14.01,2013-10-20 07:04:00,
2013-10-20 03:08:00,49.8,48.5,29.79,NNE,21,0.0,79.7,95,0.14,,,0.01,VWS V14.01,2013-10-20 07:08:00,
2013-10-20 03:10:00,50.9,49.6,29.78,NNE,21,0.0,79.7,95,0.14,,,0.01,VWS V14.01,2013-10-20 07:10:00,
2013-10-20 03:11:00,49.9,48.6,29.79,NNE,21,0.0,79.7,95,0.14,,,0.01,VWS V14.01,2013-10-20 07:11:00,
2013-10-20 03:15:00,50.8,49.7,29.78,NNE,21,0.0,79.7,96,0.14,,,0.01,VWS V14.01,2013-10-20 07:15:00,
2013-10-20 03:18:00,49.8,48.3,29.79,NNE,21,0.0,79.7,95,0.14,,,0.01,VWS V14.01,2013-10-20 07:18:00,
2013-10-20 03:19:00,49.8,48.3,29.79,NNE,21,0.0,79.7,94,0.14,,,0.01,VWS V14.01,2013-10-20 07:19:00,
2013-10-20 03:20:00,50.8,49.7,29.78,NNE,21,0.0,79.7,96,0.14,,,0.01,VWS V14.01,2013-10-20 07:20:00,
2013-10-20 03:25:00,50.7,49.5,29.78,NNE,21,0.0,79.7,96,0.14,,,0.01,VWS V14.01,2013-10-20 07:25:00,
2013-10-20 03:31:00,50.8,49.6,29.78,NNE,21,0.0,79.7,96,0.14,,,0.01,VWS V14.01,2013-10-20 07:31:00,
2013-10-20 03:36:00,50.6,49.4,29.79,NNE,21,0.0,79.7,96,0.14,,,0.01,VWS V14.01,2013-10-20 07:36:00,
2013-10-20 03:44:00,50.4,49.2,29.79,NNE,21,0.0,79.7,96,0.14,,,0.01,VWS V14.01,2013-10-20 07:44:00,
2013-10-20 03:50:00,50.4,49.1,29.79,NNE,21,0.0,79.7,95,0.14,,,0.01,VWS V14.01,2013-10-20 07:50:00,
2013-10-20 03:53:00,49.3,47.1,29.79,NNE,21,0.0,79.7,92,0.14,,,0.01,VWS V14.01,2013-10-20 07:53:00,
2013-10-20 03:55:00,50.2,48.9,29.79,NNE,21,0.0,79.7,95,0.14,,,0.01,VWS V14.01,2013-10-20 07:55:00,
2013-10-20 04:01:00,50.0,48.8,29.79,NNE,21,0.0,79.7,96,0.14,,,0.01,VWS V14.01,2013-10-20 08:01:00,
2013-10-20 04:06:00,49.9,48.6,29.79,NNE,21,0.0,79.7,95,0.14,,,0.01,VWS V14.01,2013-10-20 08:06:00,
2013-10-20 04:11:00,49.8,48.3,29.79,NNE,21,0.0,79.7,95,0.14,,,0.01,VWS V14.01,2013-10-20 08:11:00,
2013-10-20 04:16:00,49.8,48.3,29.79,NNE,21,0.0,79.7,95,0.14,,,0.01,VWS V14.01,2013-10-20 08:16:00,
2013-10-20 04:22:00,49.6,48.1,29.79,NNE,21,0.0,79.7,95,0.14,,,0.01,VWS V14.01,2013-10-20 08:22:00,
2013-10-20 04:27:00,49.5,47.8,29.79,NNE,21,0.0,79.7,94,0.14,,,0.01,VWS V14.01,2013-10-20 08:27:00,
2013-10-20 04:32:00,49.6,47.8,29.79,NNE,21,0.0,79.7,94,0.14,,,0.01,VWS V14.01,2013-10-20 08:32:00,
2013-10-20 04:38:00,49.5,47.6,29.79,NNE,21,0.0,79.7,93,0.14,,,0.01,VWS V14.01,2013-10-20 08:38:00,
2013-10-20 04:43:00,49.3,47.3,29.79,NNE,21,0.0,79.7,93,0.14,,,0.01,VWS V14.01,2013-10-20 08:43:00,
2013-10-20 04:48:00,49.3,47.1,29.79,NNE,21,0.0,79.7,92,0.14,,,0.01,VWS V14.01,2013-10-20 08:48:00,
2013-10-20 04:54:00,49.3,47.0,29.80,NNE,21,0.0,79.7,92,0.14,,,0.01,VWS V14.01,2013-10-20 08:54:00,
2013-10-20 04:59:00,49.1,46.6,29.80,NNE,21,0.0,79.7,91,0.14,,,0.01,VWS V14.01,2013-10-20 08:59:00,
2013-10-20 05:05:00,49.1,46.8,29.80,NNE,21,0.0,79.7,92,0.14,,,0.01,VWS V14.01,2013-10-20 09:05:00,
2013-10-20 05:10:00,49.0,46.5,29.81,NNE,21,0.0,79.7,91,0.14,,,0.01,VWS V14.01,2013-10-20 09:10:00,
2013-10-20 05:15:00,48.9,46.1,29.80,NNE,21,0.0,79.7,90,0.14,,,0.01,VWS V14.01,2013-10-20 09:15:00,
2013-10-20 05:21:00,48.9,44.6,29.81,NNE,21,0.0,79.7,85,0.14,,,0.01,VWS V14.01,2013-10-20 09:21:00,
2013-10-20 05:26:00,49.0,44.7,29.81,NNE,21,0.0,79.7,85,0.14,,,0.01,VWS V14.01,2013-10-20 09:26:00,
2013-10-20 05:32:00,48.8,44.5,29.82,NNE,21,0.0,79.7,85,0.14,,,0.01,VWS V14.01,2013-10-20 09:32:00,
2013-10-20 05:37:00,48.9,42.9,29.82,NNE,21,0.0,79.7,80,0.14,,,0.01,VWS V14.01,2013-10-20 09:37:00,
2013-10-20 05:42:00,48.8,43.0,29.82,NNE,21,0.0,79.7,80,0.14,,,0.01,VWS V14.01,2013-10-20 09:42:00,
2013-10-20 05:48:00,48.7,42.8,29.82,NNE,21,0.0,79.7,80,0.14,,,0.01,VWS V14.01,2013-10-20 09:48:00,
2013-10-20 05:53:00,48.6,42.2,29.82,NNE,20,0.0,79.7,78,0.14,,,0.01,VWS V14.01,2013-10-20 09:53:00,
2013-10-20 05:58:00,48.5,42.2,29.82,North,10,0.0,79.7,79,0.14,,,0.01,VWS V14.01,2013-10-20 09:58:00,
2013-10-20 06:04:00,48.5,42.3,29.82,North,10,0.0,79.7,79,0.14,,,0.01,VWS V14.01,2013-10-20 10:04:00,
2013-10-20 06:09:00,48.5,41.0,29.82,NNE,27,0.0,79.7,75,0.14,,,0.01,VWS V14.01,2013-10-20 10:09:00,
2013-10-20 06:14:00,48.5,41.3,29.82,North,359,0.0,79.7,76,0.14,,,0.01,VWS V14.01,2013-10-20 10:14:00,
2013-10-20 06:20:00,48.5,41.0,29.82,North,359,0.0,79.7,75,0.14,,,0.01,VWS V14.01,2013-10-20 10:20:00,
2013-10-20 06:25:00,48.3,41.8,29.82,North,359,0.0,79.7,78,0.14,,,0.01,VWS V14.01,2013-10-20 10:25:00,
2013-10-20 06:31:00,48.1,40.9,29.83,North,359,0.0,79.7,76,0.14,,,0.01,VWS V14.01,2013-10-20 10:31:00,
2013-10-20 06:36:00,48.1,41.8,29.83,North,359,0.0,79.7,79,0.14,,,0.01,VWS V14.01,2013-10-20 10:36:00,
2013-10-20 06:42:00,48.0,40.8,29.84,North,359,0.0,79.7,76,0.14,,,0.01,VWS V14.01,2013-10-20 10:42:00,
2013-10-20 06:47:00,48.0,41.0,29.84,North,359,0.0,79.7,77,0.14,,,0.01,VWS V14.01,2013-10-20 10:47:00,
2013-10-20 06:52:00,48.0,41.6,29.84,North,359,0.0,79.7,78,0.14,,,0.01,VWS V14.01,2013-10-20 10:52:00,
2013-10-20 06:58:00,47.8,40.9,29.84,North,359,0.0,79.7,77,0.14,,,0.01,VWS V14.01,2013-10-20 10:58:00,
2013-10-20 07:03:00,47.8,41.5,29.84,North,359,0.0,79.7,79,0.14,,,0.01,VWS V14.01,2013-10-20 11:03:00,
2013-10-20 07:09:00,47.8,41.4,29.85,North,359,0.0,79.7,78,0.14,,,0.01,VWS V14.01,2013-10-20 11:09:00,
2013-10-20 07:14:00,47.7,41.7,29.85,ENE,58,2.9,79.7,80,0.14,,,0.01,VWS V14.01,2013-10-20 11:14:00,
2013-10-20 07:20:00,47.6,41.6,29.86,ENE,58,0.0,79.7,80,0.14,,,0.01,VWS V14.01,2013-10-20 11:20:00,
2013-10-20 07:25:00,47.6,42.2,29.86,ENE,58,0.0,79.7,81,0.14,,,0.01,VWS V14.01,2013-10-20 11:25:00,
2013-10-20 07:30:00,47.5,42.2,29.87,ENE,58,0.0,79.7,82,0.14,,,0.01,VWS V14.01,2013-10-20 11:30:00,
2013-10-20 07:36:00,47.5,42.7,29.87,ENE,58,0.0,79.7,83,0.14,,,0.01,VWS V14.01,2013-10-20 11:36:00,
2013-10-20 07:41:00,47.5,42.5,29.87,ENE,58,0.0,79.7,83,0.14,,,0.01,VWS V14.01,2013-10-20 11:41:00,
2013-10-20 07:47:00,47.5,42.3,29.88,ENE,58,0.0,79.7,82,0.14,,,0.01,VWS V14.01,2013-10-20 11:47:00,
2013-10-20 07:52:00,47.5,42.8,29.88,NE,48,0.0,79.7,84,0.14,,,0.01,VWS V14.01,2013-10-20 11:52:00,
2013-10-20 07:58:00,47.6,42.6,29.89,NE,48,0.0,79.7,83,0.14,,,0.01,VWS V14.01,2013-10-20 11:58:00,
2013-10-20 08:03:00,47.6,42.5,29.89,NE,48,0.0,79.7,82,0.14,,,0.01,VWS V14.01,2013-10-20 12:03:00,
2013-10-20 08:09:00,47.6,42.3,29.89,NE,48,0.0,79.7,82,0.14,,,0.01,VWS V14.01,2013-10-20 12:09:00,
2013-10-20 08:14:00,47.7,42.5,29.90,NNE,13,0.0,79.7,82,0.14,,,0.01,VWS V14.01,2013-10-20 12:14:00,
2013-10-20 08:19:00,47.8,42.1,29.90,NNE,13,0.0,79.7,81,0.14,,,0.01,VWS V14.01,2013-10-20 12:19:00,
2013-10-20 08:25:00,47.9,42.8,29.90,NNE,13,0.0,79.7,82,0.14,,,0.01,VWS V14.01,2013-10-20 12:25:00,
2013-10-20 08:30:00,48.1,42.4,29.90,NNE,13,0.0,79.7,81,0.14,,,0.01,VWS V14.01,2013-10-20 12:30:00,
2013-10-20 08:35:00,48.2,42.5,29.91,NNE,13,0.0,79.7,80,0.14,,,0.01,VWS V14.01,2013-10-20 12:35:00,
2013-10-20 08:41:00,48.3,42.2,29.91,NNE,13,0.0,79.7,79,0.14,,,0.01,VWS V14.01,2013-10-20 12:41:00,
2013-10-20 08:47:00,48.5,42.6,29.91,NNE,13,0.0,79.7,80,0.14,,,0.01,VWS V14.01,2013-10-20 12:47:00,
2013-10-20 08:52:00,48.7,42.6,29.91,NNE,13,0.0,79.7,79,0.14,,,0.01,VWS V14.01,2013-10-20 12:52:00,
2013-10-20 08:58:00,48.9,42.6,29.91,NNE,13,0.0,79.7,79,0.14,,,0.01,VWS V14.01,2013-10-20 12:58:00,
2013-10-20 09:03:00,49.1,42.6,29.92,NNE,13,0.0,79.7,78,0.14,,,0.01,VWS V14.01,2013-10-20 13:03:00,
2013-10-20 09:09:00,49.2,42.3,29.92,NE,49,0.0,79.7,77,0.14,,,0.01,VWS V14.01,2013-10-20 13:09:00,
2013-10-20 09:15:00,49.5,42.8,29.92,NE,49,0.0,79.7,78,0.14,,,0.01,VWS V14.01,2013-10-20 13:15:00,
2013-10-20 09:20:00,49.6,42.7,29.93,NE,49,0.0,79.7,77,0.14,,,0.01,VWS V14.01,2013-10-20 13:20:00,
2013-10-20 09:25:00,49.8,42.5,29.93,NE,49,0.0,79.7,76,0.14,,,0.01,VWS V14.01,2013-10-20 13:25:00,
2013-10-20 09:31:00,50.0,42.5,29.93,NE,49,0.0,79.7,75,0.14,,,0.01,VWS V14.01,2013-10-20 13:31:00,
2013-10-20 09:37:00,50.4,41.9,29.93,NE,49,0.0,79.7,72,0.14,,,0.01,VWS V14.01,2013-10-20 13:37:00,
2013-10-20 09:42:00,50.6,42.6,29.93,NE,49,0.0,79.7,74,0.14,,,0.01,VWS V14.01,2013-10-20 13:42:00,
2013-10-20 09:48:00,50.8,41.8,29.92,NE,49,0.0,79.7,71,0.14,,,0.01,VWS V14.01,2013-10-20 13:48:00,
2013-10-20 09:53:00,50.9,41.4,29.92,NE,49,0.0,79.7,70,0.14,,,0.01,VWS V14.01,2013-10-20 13:53:00,
2013-10-20 09:58:00,50.8,40.6,29.92,NE,49,0.0,79.7,68,0.14,,,0.01,VWS V14.01,2013-10-20 13:58:00,
2013-10-20 10:04:00,50.8,40.5,29.93,NE,49,0.0,79.7,68,0.14,,,0.01,VWS V14.01,2013-10-20 14:04:00,
2013-10-20 10:09:00,51.3,40.7,29.92,NE,49,0.0,79.7,67,0.14,,,0.01,VWS V14.01,2013-10-20 14:09:00,
2013-10-20 10:14:00,51.2,40.2,29.93,NE,49,0.0,79.7,66,0.14,,,0.01,VWS V14.01,2013-10-20 14:14:00,
2013-10-20 10:19:00,51.6,40.9,29.93,NE,49,0.0,79.7,67,0.14,,,0.01,VWS V14.01,2013-10-20 14:19:00,
2013-10-20 10:25:00,51.7,40.5,29.93,North,1,0.0,79.7,65,0.14,,,0.01,VWS V14.01,2013-10-20 14:25:00,
2013-10-20 10:30:00,51.9,39.6,29.93,NNE,17,0.0,79.7,63,0.14,,,0.01,VWS V14.01,2013-10-20 14:30:00,
2013-10-20 10:37:00,52.4,40.5,29.93,NE,39,0.0,79.7,64,0.14,,,0.01,VWS V14.01,2013-10-20 14:37:00,
2013-10-20 10:42:00,52.2,40.1,29.93,NE,39,0.0,79.7,63,0.14,,,0.01,VWS V14.01,2013-10-20 14:42:00,
2013-10-20 10:48:00,52.5,40.3,29.93,ENE,70,3.4,79.7,63,0.14,,,0.01,VWS V14.01,2013-10-20 14:48:00,
2013-10-20 10:54:00,52.8,39.4,29.94,North,3,0.0,79.7,60,0.14,,,0.01,VWS V14.01,2013-10-20 14:54:00,
2013-10-20 11:00:00,53.1,40.0,29.94,North,3,2.5,79.7,61,0.14,,,0.01,VWS V14.01,2013-10-20 15:00:00,
2013-10-20 11:07:00,53.3,39.9,29.94,North,3,0.0,79.7,60,0.14,,,0.01,VWS V14.01,2013-10-20 15:07:00,
2013-10-20 11:13:00,53.4,38.9,29.94,North,354,0.0,79.7,58,0.14,,,0.01,VWS V14.01,2013-10-20 15:13:00,
2013-10-20 11:19:00,53.7,39.5,29.94,North,354,0.0,79.7,58,0.14,,,0.01,VWS V14.01,2013-10-20 15:19:00,
2013-10-20 11:24:00,53.8,39.1,29.94,North,354,0.0,79.7,57,0.14,,,0.01,VWS V14.01,2013-10-20 15:24:00,
2013-10-20 11:30:00,54.1,39.4,29.94,NNE,28,0.0,79.7,57,0.14,,,0.01,VWS V14.01,2013-10-20 15:30:00,
2013-10-20 11:36:00,54.2,38.5,29.94,NNE,28,0.0,79.7,55,0.14,,,0.01,VWS V14.01,2013-10-20 15:36:00,
2013-10-20 11:41:00,54.2,38.5,29.95,NNE,28,0.0,79.7,55,0.14,,,0.01,VWS V14.01,2013-10-20 15:41:00,
2013-10-20 11:46:00,54.3,39.0,29.95,NNE,28,0.0,79.7,56,0.14,,,0.01,VWS V14.01,2013-10-20 15:46:00,
2013-10-20 11:52:00,54.7,39.0,29.95,NNE,28,0.0,79.7,55,0.14,,,0.01,VWS V14.01,2013-10-20 15:52:00,
2013-10-20 11:57:00,54.7,38.8,29.95,NNE,28,0.0,79.7,55,0.14,,,0.01,VWS V14.01,2013-10-20 15:57:00,
2013-10-20 12:03:00,55.4,39.4,29.95,NNE,28,0.0,79.7,55,0.14,,,0.01,VWS V14.01,2013-10-20 16:03:00,
2013-10-20 12:09:00,56.0,39.2,29.95,NNE,28,0.0,79.7,53,0.14,,,0.01,VWS V14.01,2013-10-20 16:09:00,
2013-10-20 12:14:00,55.8,38.1,29.95,NNE,28,0.0,79.7,51,0.14,,,0.01,VWS V14.01,2013-10-20 16:14:00,
2013-10-20 12:15:00,58.2,39.5,29.94,NNE,28,0.0,79.7,50,0.14,,,0.01,VWS V14.01,2013-10-20 16:15:00,
2013-10-20 12:18:00,58.0,38.3,29.94,NNE,28,0.0,79.7,48,0.14,,,0.01,VWS V14.01,2013-10-20 16:18:00,
2013-10-20 12:19:00,56.3,40.5,29.95,NNE,28,0.0,79.7,55,0.14,,,0.01,VWS V14.01,2013-10-20 16:19:00,
2013-10-20 12:26:00,56.8,39.3,29.95,NNE,28,0.0,79.7,52,0.14,,,0.01,VWS V14.01,2013-10-20 16:26:00,
2013-10-20 12:32:00,56.8,39.0,29.95,NNE,28,0.0,79.7,51,0.14,,,0.01,VWS V14.01,2013-10-20 16:32:00,
2013-10-20 12:37:00,57.0,38.9,29.94,NNE,28,0.0,79.7,51,0.14,,,0.01,VWS V14.01,2013-10-20 16:37:00,
2013-10-20 12:43:00,57.0,39.0,29.95,NNE,28,0.0,79.7,51,0.14,,,0.01,VWS V14.01,2013-10-20 16:43:00,
2013-10-20 12:44:00,58.3,37.6,29.94,NNE,28,0.0,79.7,46,0.14,,,0.01,VWS V14.01,2013-10-20 16:44:00,
2013-10-20 12:49:00,57.1,38.3,29.95,NNE,28,0.0,79.7,49,0.14,,,0.01,VWS V14.01,2013-10-20 16:49:00,
2013-10-20 12:50:00,58.6,38.5,29.94,NNE,28,0.0,79.7,47,0.14,,,0.01,VWS V14.01,2013-10-20 16:50:00,
2013-10-20 12:54:00,57.5,38.8,29.94,NNE,28,0.0,79.7,50,0.14,,,0.01,VWS V14.01,2013-10-20 16:54:00,
2013-10-20 12:59:00,57.2,38.5,29.94,NNE,28,0.0,79.7,50,0.14,,,0.01,VWS V14.01,2013-10-20 16:59:00,
2013-10-20 13:03:00,58.3,37.6,29.94,NNE,28,0.0,0.0,46,0.00,,,0.01,VWS V14.01,2013-10-20 17:03:00,
2013-10-20 13:05:00,57.5,38.7,29.94,NNE,28,0.0,79.7,49,0.14,,,0.01,VWS V14.01,2013-10-20 17:05:00,
2013-10-20 13:08:00,58.3,37.5,29.93,NNE,28,0.0,0.0,46,0.00,,,0.01,VWS V14.01,2013-10-20 17:08:00,
2013-10-20 13:10:00,58.4,37.1,29.94,NNE,28,0.0,0.0,45,0.00,,,0.01,VWS V14.01,2013-10-20 17:10:00,
2013-10-20 13:11:00,58.1,39.7,29.94,NNE,28,0.0,79.7,50,0.14,,,0.01,VWS V14.01,2013-10-20 17:11:00,
2013-10-20 13:15:00,58.3,37.5,29.94,NNE,28,0.0,0.0,46,0.00,,,0.01,VWS V14.01,2013-10-20 17:15:00,
2013-10-20 13:16:00,58.0,38.5,29.94,NNE,28,0.0,79.7,48,0.14,,,0.01,VWS V14.01,2013-10-20 17:16:00,
2013-10-20 13:18:00,58.5,37.1,29.94,NNE,28,0.0,0.0,45,0.00,,,0.01,VWS V14.01,2013-10-20 17:18:00,
2013-10-20 13:22:00,57.9,38.5,29.94,NNE,28,0.0,79.7,48,0.14,,,0.01,VWS V14.01,2013-10-20 17:22:00,
2013-10-20 13:23:00,59.0,37.3,29.94,NNE,28,0.0,0.0,44,0.00,,,0.01,VWS V14.01,2013-10-20 17:23:00,
2013-10-20 13:24:00,59.1,37.0,29.94,NNE,28,0.0,0.0,44,0.00,,,0.01,VWS V14.01,2013-10-20 17:24:00,
2013-10-20 13:25:00,59.0,37.3,29.94,NNE,28,0.0,0.0,44,0.00,,,0.01,VWS V14.01,2013-10-20 17:25:00,
2013-10-20 13:28:00,58.4,39.3,29.94,NNE,28,0.0,79.7,49,0.14,,,0.01,VWS V14.01,2013-10-20 17:28:00,
2013-10-20 13:31:00,59.0,38.8,29.94,NNE,28,0.0,0.0,47,0.00,,,0.01,VWS V14.01,2013-10-20 17:31:00,
2013-10-20 13:33:00,58.6,38.0,29.94,NNE,28,0.0,79.7,46,0.14,,,0.01,VWS V14.01,2013-10-20 17:33:00,
2013-10-20 13:34:00,59.3,38.2,29.94,NNE,28,0.0,0.0,45,0.00,,,0.01,VWS V14.01,2013-10-20 17:34:00,
2013-10-20 13:39:00,58.5,37.7,29.94,NNE,28,0.0,79.7,46,0.14,,,0.01,VWS V14.01,2013-10-20 17:39:00,
2013-10-20 13:41:00,59.5,37.1,29.94,NNE,28,0.0,0.0,43,0.00,,,0.01,VWS V14.01,2013-10-20 17:41:00,
2013-10-20 13:43:00,59.2,36.6,29.95,NNE,28,0.0,0.0,43,0.00,,,0.01,VWS V14.01,2013-10-20 17:43:00,
2013-10-20 13:44:00,58.6,38.6,29.94,NNE,28,0.0,79.7,47,0.14,,,0.01,VWS V14.01,2013-10-20 17:44:00,
2013-10-20 13:49:00,58.3,37.4,29.94,NNE,28,0.0,79.7,46,0.14,,,0.01,VWS V14.01,2013-10-20 17:49:00,
2013-10-20 13:58:00,58.3,37.5,29.94,NNE,28,0.0,0.0,46,0.14,,,0.01,VWS V14.01,2013-10-20 17:58:00,
2013-10-20 14:02:00,58.3,37.5,29.94,NNE,28,0.0,0.0,46,0.14,,,0.01,VWS V14.01,2013-10-20 18:02:00,
2013-10-20 14:03:00,58.3,37.2,29.94,NNE,28,0.0,0.0,45,0.00,,,0.01,VWS V14.01,2013-10-20 18:03:00,
2013-10-20 14:08:00,58.2,36.9,29.94,NNE,28,0.0,0.0,45,0.00,,,0.01,VWS V14.01,2013-10-20 18:08:00,
2013-10-20 14:09:00,58.4,37.3,29.93,NNE,28,0.0,0.0,45,0.00,,,0.01,VWS V14.01,2013-10-20 18:09:00,
2013-10-20 14:10:00,58.4,37.1,29.94,NNE,28,0.0,0.0,45,0.00,,,0.01,VWS V14.01,2013-10-20 18:10:00,
2013-10-20 14:11:00,58.3,36.9,29.94,NNE,28,0.0,1.8,45,0.00,,,0.01,VWS V14.01,2013-10-20 18:11:00,
2013-10-20 14:12:00,58.2,36.8,29.94,NNE,28,0.0,0.0,45,0.00,,,0.01,VWS V14.01,2013-10-20 18:12:00,
2013-10-20 14:13:00,58.3,37.7,29.94,NNE,28,0.0,0.0,46,0.00,,,0.01,VWS V14.01,2013-10-20 18:13:00,
2013-10-20 14:14:00,58.4,37.0,29.94,NNE,28,0.0,0.0,45,0.00,,,0.01,VWS V14.01,2013-10-20 18:14:00,
2013-10-20 14:15:00,58.3,37.5,29.94,NNE,28,0.0,0.0,46,0.00,,,0.01,VWS V14.01,2013-10-20 18:15:00,
2013-10-20 14:16:00,58.4,37.6,29.94,NNE,28,0.0,0.0,46,0.00,,,0.01,VWS V14.01,2013-10-20 18:16:00,
2013-10-20 14:17:00,58.3,37.2,29.94,NNE,28,0.0,0.0,45,0.00,,,0.01,VWS V14.01,2013-10-20 18:17:00,
2013-10-20 14:18:00,58.5,37.1,29.94,NNE,28,0.0,0.0,45,0.00,,,0.01,VWS V14.01,2013-10-20 18:18:00,
2013-10-20 14:19:00,59.0,37.4,29.94,NNE,28,0.0,0.0,44,0.00,,,0.01,VWS V14.01,2013-10-20 18:19:00,
2013-10-20 14:20:00,58.8,38.9,29.93,NNE,28,0.0,0.0,48,0.00,,,0.01,VWS V14.01,2013-10-20 18:20:00,
2013-10-20 14:21:00,58.8,37.4,29.94,NNE,28,0.0,0.0,45,0.00,,,0.01,VWS V14.01,2013-10-20 18:21:00,
2013-10-20 14:22:00,58.9,37.5,29.94,NNE,28,0.0,0.0,45,0.00,,,0.01,VWS V14.01,2013-10-20 18:22:00,
2013-10-20 14:23:00,59.0,37.4,29.94,NNE,28,0.0,0.0,44,0.00,,,0.01,VWS V14.01,2013-10-20 18:23:00,
2013-10-20 14:24:00,58.8,36.8,29.94,NNE,28,0.0,0.0,44,0.00,,,0.01,VWS V14.01,2013-10-20 18:24:00,
2013-10-20 14:25:00,59.1,37.0,29.94,NNE,28,0.0,0.0,44,0.00,,,0.01,VWS V14.01,2013-10-20 18:25:00,
2013-10-20 14:26:00,59.0,37.4,29.94,NNE,28,0.0,0.0,44,0.00,,,0.01,VWS V14.01,2013-10-20 18:26:00,
2013-10-20 14:27:00,58.9,37.0,29.94,NNE,28,0.0,0.0,44,0.00,,,0.01,VWS V14.01,2013-10-20 18:27:00,
2013-10-20 14:28:00,58.8,37.1,29.94,NNE,28,0.0,0.0,44,0.00,,,0.01,VWS V14.01,2013-10-20 18:28:00,
2013-10-20 14:29:00,59.2,38.0,29.94,NNE,28,0.0,0.0,45,0.00,,,0.01,VWS V14.01,2013-10-20 18:29:00,
2013-10-20 14:30:00,59.0,37.8,29.94,NNE,28,0.0,0.0,45,0.00,,,0.01,VWS V14.01,2013-10-20 18:30:00,
2013-10-20 14:31:00,59.0,38.8,29.94,NNE,28,0.0,0.0,47,0.00,,,0.01,VWS V14.01,2013-10-20 18:31:00,
2013-10-20 14:32:00,59.1,38.4,29.94,NNE,28,0.0,0.0,46,0.00,,,0.01,VWS V14.01,2013-10-20 18:32:00,
2013-10-20 14:33:00,59.2,37.5,29.94,NNE,28,0.0,0.0,44,0.00,,,0.01,VWS V14.01,2013-10-20 18:33:00,
2013-10-20 14:34:00,59.4,37.6,29.94,NNE,28,0.0,0.0,44,0.00,,,0.01,VWS V14.01,2013-10-20 18:34:00,
2013-10-20 14:35:00,59.2,38.0,29.94,NNE,28,0.0,0.0,45,0.00,,,0.01,VWS V14.01,2013-10-20 18:35:00,
2013-10-20 14:36:00,59.3,37.5,29.94,NNE,28,0.0,0.0,44,0.00,,,0.01,VWS V14.01,2013-10-20 18:36:00,
2013-10-20 14:37:00,59.4,38.3,29.94,NNE,28,0.0,0.0,45,0.00,,,0.01,VWS V14.01,2013-10-20 18:37:00,
2013-10-20 14:38:00,59.4,37.9,29.94,NNE,28,0.0,0.0,45,0.00,,,0.01,VWS V14.01,2013-10-20 18:38:00,
2013-10-20 14:39:00,59.2,36.4,29.95,NNE,28,0.0,0.0,42,0.00,,,0.01,VWS V14.01,2013-10-20 18:39:00,
2013-10-20 14:40:00,59.5,37.9,29.94,NNE,28,0.0,0.0,44,0.00,,,0.01,VWS V14.01,2013-10-20 18:40:00,
2013-10-20 14:41:00,59.5,37.5,29.94,NNE,28,0.0,0.0,44,0.00,,,0.01,VWS V14.01,2013-10-20 18:41:00,
2013-10-20 14:42:00,59.5,37.1,29.94,NNE,28,0.0,0.0,43,0.00,,,0.01,VWS V14.01,2013-10-20 18:42:00,
2013-10-20 14:43:00,59.2,36.6,29.94,NNE,28,0.0,0.0,43,0.00,,,0.01,VWS V14.01,2013-10-20 18:43:00,
2013-10-20 14:44:00,58.9,37.6,29.94,NNE,28,0.0,0.0,45,0.00,,,0.01,VWS V14.01,2013-10-20 18:44:00,
2013-10-20 14:45:00,59.2,37.5,29.94,NNE,28,0.0,0.0,44,0.00,,,0.01,VWS V14.01,2013-10-20 18:45:00,
2013-10-20 14:46:00,59.0,36.7,29.94,NNE,28,0.0,0.0,43,0.00,,,0.01,VWS V14.01,2013-10-20 18:46:00,
2013-10-20 14:47:00,59.1,37.3,29.94,NNE,28,0.0,0.0,44,0.00,,,0.01,VWS V14.01,2013-10-20 18:47:00,
2013-10-20 14:48:00,58.9,37.2,29.94,NNE,28,0.0,0.0,44,0.00,,,0.01,VWS V14.01,2013-10-20 18:48:00,
2013-10-20 14:49:00,59.2,38.5,29.94,NNE,28,0.0,0.0,46,0.00,,,0.01,VWS V14.01,2013-10-20 18:49:00,
2013-10-20 14:50:00,59.0,37.8,29.94,NNE,28,0.0,0.0,45,0.00,,,0.01,VWS V14.01,2013-10-20 18:50:00,
2013-10-20 14:51:00,59.1,38.0,29.94,NNE,28,0.0,0.0,45,0.00,,,0.01,VWS V14.01,2013-10-20 18:51:00,
2013-10-20 14:52:00,59.1,38.2,29.94,NNE,28,0.0,0.0,46,0.00,,,0.01,VWS V14.01,2013-10-20 18:52:00,
2013-10-20 14:53:00,59.2,38.5,29.94,NNE,28,0.0,0.0,46,0.00,,,0.01,VWS V14.01,2013-10-20 18:53:00,
2013-10-20 14:54:00,59.7,37.2,29.95,NNE,28,0.0,0.0,43,0.00,,,0.01,VWS V14.01,2013-10-20 18:54:00,
2013-10-20 14:55:00,59.4,37.6,29.94,NNE,28,0.0,0.0,44,0.00,,,0.01,VWS V14.01,2013-10-20 18:55:00,
2013-10-20 14:56:00,59.4,38.0,29.94,NNE,28,0.0,0.0,45,0.00,,,0.01,VWS V14.01,2013-10-20 18:56:00,
2013-10-20 14:57:00,59.6,38.3,29.94,NNE,28,0.0,0.0,45,0.00,,,0.01,VWS V14.01,2013-10-20 18:57:00,
2013-10-20 14:58:00,59.7,37.2,29.94,NNE,28,0.0,0.0,43,0.00,,,0.01,VWS V14.01,2013-10-20 18:58:00,
2013-10-20 14:59:00,59.4,36.9,29.94,NNE,28,0.0,0.0,43,0.00,,,0.01,VWS V14.01,2013-10-20 18:59:00,
2013-10-20 15:00:00,59.6,37.0,29.94,NNE,28,0.0,0.0,43,0.00,,,0.01,VWS V14.01,2013-10-20 19:00:00,
2013-10-20 15:01:00,59.6,36.6,29.94,NNE,28,0.0,0.0,42,0.00,,,0.01,VWS V14.01,2013-10-20 19:01:00,
2013-10-20 15:02:00,59.4,36.3,29.94,NNE,28,0.0,0.0,42,0.00,,,0.01,VWS V14.01,2013-10-20 19:02:00,
2013-10-20 15:03:00,59.5,37.1,29.94,NNE,28,0.0,0.0,43,0.00,,,0.01,VWS V14.01,2013-10-20 19:03:00,
2013-10-20 15:04:00,59.5,37.5,29.95,NNE,28,0.0,0.0,44,0.00,,,0.01,VWS V14.01,2013-10-20 19:04:00,
2013-10-20 15:05:00,59.3,37.3,29.94,NNE,28,0.0,0.0,44,0.00,,,0.01,VWS V14.01,2013-10-20 19:05:00,
2013-10-20 15:06:00,59.3,37.3,29.94,NNE,28,0.0,0.0,44,0.00,,,0.01,VWS V14.01,2013-10-20 19:06:00,
2013-10-20 15:07:00,59.5,37.7,29.94,NNE,28,0.0,0.0,44,0.00,,,0.01,VWS V14.01,2013-10-20 19:07:00,
2013-10-20 15:08:00,59.5,37.5,29.94,NNE,28,0.0,0.0,44,0.00,,,0.01,VWS V14.01,2013-10-20 19:08:00,
2013-10-20 15:09:00,59.4,37.6,29.95,NNE,28,0.0,0.0,44,0.00,,,0.01,VWS V14.01,2013-10-20 19:09:00,
2013-10-20 15:10:00,59.5,37.1,29.94,NNE,28,0.0,0.0,43,0.00,,,0.01,VWS V14.01,2013-10-20 19:10:00,
2013-10-20 15:11:00,59.5,37.7,29.94,NNE,28,0.0,0.0,44,0.00,,,0.01,VWS V14.01,2013-10-20 19:11:00,
2013-10-20 15:12:00,59.4,37.2,29.94,NNE,28,0.0,0.0,43,0.00,,,0.01,VWS V14.01,2013-10-20 19:12:00,
2013-10-20 15:13:00,59.4,37.6,29.94,NNE,28,0.0,0.0,44,0.00,,,0.01,VWS V14.01,2013-10-20 19:13:00,
2013-10-20 15:14:00,59.4,36.9,29.95,NNE,28,0.0,0.0,43,0.00,,,0.01,VWS V14.01,2013-10-20 19:14:00,
2013-10-20 15:15:00,59.4,37.0,29.94,NNE,28,0.0,0.0,43,0.00,,,0.01,VWS V14.01,2013-10-20 19:15:00,
2013-10-20 15:16:00,59.4,36.9,29.94,NNE,28,0.0,0.0,43,0.00,,,0.01,VWS V14.01,2013-10-20 19:16:00,
2013-10-20 15:17:00,59.4,36.5,29.94,NNE,28,0.0,0.0,42,0.00,,,0.01,VWS V14.01,2013-10-20 19:17:00,
2013-10-20 15:18:00,59.4,36.9,29.95,NNE,28,0.0,0.0,43,0.00,,,0.01,VWS V14.01,2013-10-20 19:18:00,
2013-10-20 15:19:00,59.5,37.3,29.95,NNE,28,0.0,0.0,44,0.00,,,0.01,VWS V14.01,2013-10-20 19:19:00,
2013-10-20 15:20:00,59.5,37.4,29.94,NNE,28,0.0,0.0,44,0.00,,,0.01,VWS V14.01,2013-10-20 19:20:00,
2013-10-20 15:21:00,59.5,37.5,29.94,NNE,28,0.0,0.0,44,0.00,,,0.01,VWS V14.01,2013-10-20 19:21:00,
2013-10-20 15:22:00,59.5,37.6,29.95,NNE,28,0.0,0.0,44,0.00,,,0.01,VWS V14.01,2013-10-20 19:22:00,
2013-10-20 15:23:00,59.5,37.3,29.94,NNE,28,0.0,0.0,44,0.00,,,0.01,VWS V14.01,2013-10-20 19:23:00,
2013-10-20 15:24:00,59.6,37.7,29.95,NNE,28,0.0,0.0,44,0.00,,,0.01,VWS V14.01,2013-10-20 19:24:00,
2013-10-20 15:25:00,59.6,37.7,29.94,NNE,28,0.0,0.0,44,0.00,,,0.01,VWS V14.01,2013-10-20 19:25:00,
2013-10-20 15:26:00,59.7,37.7,29.95,NNE,28,0.0,0.0,44,0.00,,,0.01,VWS V14.01,2013-10-20 19:26:00,
2013-10-20 15:27:00,59.7,38.1,29.94,NNE,28,0.0,0.0,45,0.00,,,0.01,VWS V14.01,2013-10-20 19:27:00,
2013-10-20 15:28:00,59.6,37.7,29.95,NNE,28,0.0,0.0,44,0.00,,,0.01,VWS V14.01,2013-10-20 19:28:00,
2013-10-20 15:29:00,59.5,37.2,29.95,NNE,28,0.0,0.0,43,0.00,,,0.01,VWS V14.01,2013-10-20 19:29:00,
2013-10-20 15:30:00,59.6,38.0,29.95,NNE,28,0.0,0.0,44,0.00,,,0.01,VWS V14.01,2013-10-20 19:30:00,
2013-10-20 15:31:00,59.5,37.3,29.95,NNE,28,0.0,0.0,44,0.00,,,0.01,VWS V14.01,2013-10-20 19:31:00,
2013-10-20 15:32:00,59.5,37.4,29.95,NNE,28,0.0,0.0,44,0.00,,,0.01,VWS V14.01,2013-10-20 19:32:00,
2013-10-20 15:33:00,59.5,37.2,29.95,NNE,28,0.0,0.0,43,0.00,,,0.01,VWS V14.01,2013-10-20 19:33:00,
2013-10-20 15:34:00,59.7,37.0,29.95,NNE,28,0.0,0.0,43,0.00,,,0.01,VWS V14.01,2013-10-20 19:34:00,
2013-10-20 15:35:00,59.5,36.4,29.95,NNE,28,0.0,0.0,42,0.00,,,0.01,VWS V14.01,2013-10-20 19:35:00,
2013-10-20 15:36:00,59.6,37.5,29.95,NNE,28,0.0,0.0,44,0.00,,,0.01,VWS V14.01,2013-10-20 19:36:00,
2013-10-20 15:37:00,59.7,37.5,29.95,NNE,28,0.0,0.0,44,0.00,,,0.01,VWS V14.01,2013-10-20 19:37:00,
2013-10-20 15:38:00,59.7,37.0,29.95,NNE,28,0.0,0.0,43,0.00,,,0.01,VWS V14.01,2013-10-20 19:38:00,
2013-10-20 15:39:00,59.9,37.4,29.95,NNE,28,0.0,0.0,43,0.00,,,0.01,VWS V14.01,2013-10-20 19:39:00,
2013-10-20 15:40:00,59.9,37.7,29.95,NNE,28,0.0,0.0,44,0.00,,,0.01,VWS V14.01,2013-10-20 19:40:00,
2013-10-20 15:41:00,60.0,37.5,29.95,NNE,28,0.0,0.0,43,0.00,,,0.01,VWS V14.01,2013-10-20 19:41:00,
2013-10-20 15:42:00,60.0,37.7,29.95,NNE,28,0.0,0.0,43,0.00,,,0.01,VWS V14.01,2013-10-20 19:42:00,
2013-10-20 15:43:00,59.9,37.4,29.95,NNE,28,0.0,0.0,43,0.00,,,0.01,VWS V14.01,2013-10-20 19:43:00,
2013-10-20 15:44:00,59.8,37.6,29.95,NNE,28,0.0,0.0,44,0.00,,,0.01,VWS V14.01,2013-10-20 19:44:00,
2013-10-20 15:45:00,60.0,37.8,29.95,NNE,28,0.0,0.0,44,0.00,,,0.01,VWS V14.01,2013-10-20 19:45:00,
2013-10-20 15:46:00,60.0,37.8,29.95,NNE,28,0.0,0.0,44,0.00,,,0.01,VWS V14.01,2013-10-20 19:46:00,
2013-10-20 15:47:00,59.9,38.1,29.95,NNE,28,0.0,0.0,44,0.00,,,0.01,VWS V14.01,2013-10-20 19:47:00,
2013-10-20 15:48:00,59.8,37.6,29.95,NNE,28,0.0,0.0,44,0.00,,,0.01,VWS V14.01,2013-10-20 19:48:00,
2013-10-20 15:49:00,59.5,36.5,29.95,NNE,28,0.0,0.0,42,0.00,,,0.01,VWS V14.01,2013-10-20 19:49:00,
2013-10-20 15:50:00,59.7,37.1,29.95,NNE,28,0.0,0.0,43,0.00,,,0.01,VWS V14.01,2013-10-20 19:50:00,
2013-10-20 15:51:00,59.6,37.2,29.95,NNE,28,0.0,0.0,43,0.00,,,0.01,VWS V14.01,2013-10-20 19:51:00,
2013-10-20 15:52:00,59.6,37.5,29.95,NNE,28,0.0,0.0,44,0.00,,,0.01,VWS V14.01,2013-10-20 19:52:00,
2013-10-20 15:53:00,59.5,36.5,29.95,NNE,28,0.0,0.0,42,0.00,,,0.01,VWS V14.01,2013-10-20 19:53:00,
2013-10-20 15:54:00,59.4,37.2,29.95,NNE,28,0.0,0.0,44,0.00,,,0.01,VWS V14.01,2013-10-20 19:54:00,
2013-10-20 15:55:00,59.4,36.7,29.95,NNE,28,0.0,0.0,43,0.00,,,0.01,VWS V14.01,2013-10-20 19:55:00,
2013-10-20 15:56:00,59.4,36.9,29.95,NNE,28,0.0,0.0,43,0.00,,,0.01,VWS V14.01,2013-10-20 19:56:00,
2013-10-20 15:57:00,59.4,37.0,29.95,NNE,28,0.0,0.0,43,0.00,,,0.01,VWS V14.01,2013-10-20 19:57:00,
2013-10-20 15:58:00,59.4,37.2,29.95,NNE,28,0.0,0.0,44,0.00,,,0.01,VWS V14.01,2013-10-20 19:58:00,
2013-10-20 15:59:00,59.3,37.2,29.95,NNE,28,0.0,0.0,44,0.00,,,0.01,VWS V14.01,2013-10-20 19:59:00,
2013-10-20 16:00:00,59.3,38.1,29.95,NNE,28,0.0,0.0,45,0.00,,,0.01,VWS V14.01,2013-10-20 20:00:00,
2013-10-20 16:01:00,59.3,36.8,29.94,NNE,28,0.0,0.0,43,0.00,,,0.01,VWS V14.01,2013-10-20 20:01:00,
2013-10-20 16:02:00,59.3,37.0,29.95,NNE,28,0.0,0.0,43,0.00,,,0.01,VWS V14.01,2013-10-20 20:02:00,
2013-10-20 16:03:00,59.3,37.2,29.95,NNE,28,0.0,0.0,44,0.00,,,0.01,VWS V14.01,2013-10-20 20:03:00,
2013-10-20 16:04:00,59.3,37.1,29.95,NNE,28,0.0,0.0,44,0.00,,,0.01,VWS V14.01,2013-10-20 20:04:00,
2013-10-20 16:05:00,59.3,37.9,29.95,NNE,28,0.0,0.0,45,0.00,,,0.01,VWS V14.01,2013-10-20 20:05:00,
2013-10-20 16:06:00,59.2,37.8,29.95,NNE,28,0.0,0.0,45,0.00,,,0.01,VWS V14.01,2013-10-20 20:06:00,
2013-10-20 16:07:00,59.3,36.7,29.95,NNE,28,0.0,0.0,43,0.00,,,0.01,VWS V14.01,2013-10-20 20:07:00,
2013-10-20 16:08:00,59.3,37.1,29.95,NNE,28,0.0,0.0,44,0.00,,,0.01,VWS V14.01,2013-10-20 20:08:00,
2013-10-20 16:09:00,59.1,35.6,29.95,NNE,28,0.0,0.0,41,0.00,,,0.01,VWS V14.01,2013-10-20 20:09:00,
2013-10-20 16:10:00,59.2,36.1,29.95,NNE,28,0.0,0.0,42,0.00,,,0.01,VWS V14.01,2013-10-20 20:10:00,
2013-10-20 16:11:00,59.1,36.4,29.95,NNE,28,0.0,0.0,43,0.00,,,0.01,VWS V14.01,2013-10-20 20:11:00,
2013-10-20 16:12:00,59.1,35.7,29.95,NNE,28,0.0,0.0,41,0.00,,,0.01,VWS V14.01,2013-10-20 20:12:00,
2013-10-20 16:13:00,59.1,35.6,29.95,NNE,28,0.0,0.0,41,0.00,,,0.01,VWS V14.01,2013-10-20 20:13:00,
2013-10-20 16:14:00,59.0,36.7,29.96,NNE,28,0.0,0.0,43,0.00,,,0.01,VWS V14.01,2013-10-20 20:14:00,
2013-10-20 16:15:00,59.0,36.4,29.95,NNE,28,0.0,0.0,43,0.00,,,0.01,VWS V14.01,2013-10-20 20:15:00,
2013-10-20 16:16:00,59.0,36.3,29.95,NNE,28,0.0,0.0,43,0.00,,,0.01,VWS V14.01,2013-10-20 20:16:00,
2013-10-20 16:17:00,59.0,36.4,29.95,NNE,28,0.0,0.0,43,0.00,,,0.01,VWS V14.01,2013-10-20 20:17:00,
2013-10-20 16:18:00,59.0,36.7,29.96,NNE,28,0.0,0.0,43,0.00,,,0.01,VWS V14.01,2013-10-20 20:18:00,
2013-10-20 16:19:00,58.7,35.9,29.96,NNE,28,0.0,0.0,42,0.00,,,0.01,VWS V14.01,2013-10-20 20:19:00,
2013-10-20 16:20:00,59.0,36.6,29.96,NNE,28,0.0,0.0,43,0.00,,,0.01,VWS V14.01,2013-10-20 20:20:00,
2013-10-20 16:21:00,58.9,36.6,29.96,NNE,28,0.0,0.0,43,0.00,,,0.01,VWS V14.01,2013-10-20 20:21:00,
2013-10-20 16:22:00,58.8,35.8,29.96,NNE,28,0.0,0.0,42,0.00,,,0.01,VWS V14.01,2013-10-20 20:22:00,
2013-10-20 16:23:00,58.7,35.9,29.96,NNE,28,0.0,0.0,42,0.00,,,0.01,VWS V14.01,2013-10-20 20:23:00,
2013-10-20 16:24:00,58.7,36.5,29.96,NNE,28,0.0,0.0,43,0.00,,,0.01,VWS V14.01,2013-10-20 20:24:00,
2013-10-20 16:25:00,58.8,36.6,29.96,NNE,28,0.0,0.0,43,0.00,,,0.01,VWS V14.01,2013-10-20 20:25:00,
2013-10-20 16:26:00,58.7,36.7,29.96,NNE,28,0.0,0.0,44,0.00,,,0.01,VWS V14.01,2013-10-20 20:26:00,
2013-10-20 16:27:00,58.7,36.6,29.96,NNE,28,0.0,0.0,44,0.00,,,0.01,VWS V14.01,2013-10-20 20:27:00,
2013-10-20 16:28:00,58.7,36.5,29.96,NNE,28,0.0,0.0,43,0.00,,,0.01,VWS V14.01,2013-10-20 20:28:00,
2013-10-20 16:29:00,58.5,36.6,29.96,NNE,28,0.0,0.0,44,0.00,,,0.01,VWS V14.01,2013-10-20 20:29:00,
2013-10-20 16:30:00,58.5,36.2,29.96,NNE,28,0.0,0.0,43,0.00,,,0.01,VWS V14.01,2013-10-20 20:30:00,
2013-10-20 16:31:00,58.6,36.7,29.96,NNE,28,0.0,0.0,44,0.00,,,0.01,VWS V14.01,2013-10-20 20:31:00,
2013-10-20 16:32:00,58.5,36.0,29.96,NNE,28,0.0,0.0,43,0.00,,,0.01,VWS V14.01,2013-10-20 20:32:00,
2013-10-20 16:33:00,58.5,36.6,29.96,NNE,28,0.0,0.0,44,0.00,,,0.01,VWS V14.01,2013-10-20 20:33:00,
2013-10-20 16:34:00,58.5,36.7,29.96,NNE,28,0.0,0.0,44,0.00,,,0.01,VWS V14.01,2013-10-20 20:34:00,
2013-10-20 16:35:00,58.5,36.9,29.96,NNE,28,0.0,0.0,44,0.00,,,0.01,VWS V14.01,2013-10-20 20:35:00,
2013-10-20 16:36:00,58.4,37.2,29.96,NNE,28,0.0,0.0,45,0.00,,,0.01,VWS V14.01,2013-10-20 20:36:00,
2013-10-20 16:37:00,58.4,36.7,29.96,NNE,28,0.0,0.0,44,0.00,,,0.01,VWS V14.01,2013-10-20 20:37:00,
2013-10-20 16:38:00,58.5,36.7,29.96,NNE,28,0.0,0.0,44,0.00,,,0.01,VWS V14.01,2013-10-20 20:38:00,
2013-10-20 16:39:00,58.5,37.1,29.96,NNE,28,0.0,0.0,45,0.00,,,0.01,VWS V14.01,2013-10-20 20:39:00,
2013-10-20 16:40:00,58.6,37.0,29.96,NNE,28,0.0,0.0,44,0.00,,,0.01,VWS V14.01,2013-10-20 20:40:00,
2013-10-20 16:41:00,58.5,37.0,29.96,NNE,28,0.0,0.0,44,0.00,,,0.01,VWS V14.01,2013-10-20 20:41:00,
2013-10-20 16:42:00,58.5,37.1,29.96,NNE,28,0.0,0.0,45,0.00,,,0.01,VWS V14.01,2013-10-20 20:42:00,
2013-10-20 16:43:00,58.5,37.1,29.96,NNE,28,0.0,0.0,45,0.00,,,0.01,VWS V14.01,2013-10-20 20:43:00,
2013-10-20 16:44:00,58.5,37.5,29.96,NNE,28,0.0,0.0,46,0.00,,,0.01,VWS V14.01,2013-10-20 20:44:00,
2013-10-20 16:45:00,58.5,36.6,29.96,NNE,28,0.0,0.0,44,0.00,,,0.01,VWS V14.01,2013-10-20 20:45:00,
2013-10-20 16:46:00,58.5,36.8,29.96,NNE,28,0.0,0.0,44,0.00,,,0.01,VWS V14.01,2013-10-20 20:46:00,
2013-10-20 16:47:00,58.5,37.1,29.96,NNE,28,0.0,0.0,45,0.00,,,0.01,VWS V14.01,2013-10-20 20:47:00,
2013-10-20 16:48:00,58.5,37.5,29.96,NNE,28,0.0,0.0,46,0.00,,,0.01,VWS V14.01,2013-10-20 20:48:00,
2013-10-20 16:49:00,58.4,36.7,29.96,NNE,28,0.0,0.0,44,0.00,,,0.01,VWS V14.01,2013-10-20 20:49:00,
2013-10-20 16:50:00,58.6,37.7,29.96,NNE,28,0.0,0.0,46,0.00,,,0.01,VWS V14.01,2013-10-20 20:50:00,
2013-10-20 16:51:00,58.6,37.6,29.96,NNE,28,0.0,0.0,45,0.00,,,0.01,VWS V14.01,2013-10-20 20:51:00,
2013-10-20 16:52:00,58.5,38.0,29.96,NNE,28,0.0,0.0,46,0.00,,,0.01,VWS V14.01,2013-10-20 20:52:00,
2013-10-20 16:53:00,58.4,36.7,29.96,NNE,28,0.0,0.0,44,0.00,,,0.01,VWS V14.01,2013-10-20 20:53:00,
2013-10-20 16:54:00,58.4,36.1,29.96,NNE,28,0.0,0.0,43,0.00,,,0.01,VWS V14.01,2013-10-20 20:54:00,
2013-10-20 16:55:00,58.6,37.1,29.96,NNE,28,0.0,0.0,45,0.00,,,0.01,VWS V14.01,2013-10-20 20:55:00,
2013-10-20 16:56:00,58.4,36.8,29.96,NNE,28,0.0,0.0,44,0.00,,,0.01,VWS V14.01,2013-10-20 20:56:00,
2013-10-20 16:57:00,58.4,36.1,29.96,NNE,28,0.0,0.0,43,0.00,,,0.01,VWS V14.01,2013-10-20 20:57:00,
2013-10-20 16:58:00,58.4,36.1,29.96,NNE,28,0.0,0.0,43,0.00,,,0.01,VWS V14.01,2013-10-20 20:58:00,
2013-10-20 16:59:00,58.3,36.3,29.96,NNE,28,0.0,0.0,44,0.00,,,0.01,VWS V14.01,2013-10-20 20:59:00,
2013-10-20 17:00:00,58.4,36.0,29.96,NNE,28,0.0,0.0,43,0.00,,,0.01,VWS V14.01,2013-10-20 21:00:00,
2013-10-20 17:01:00,58.3,36.0,29.96,NNE,28,0.0,0.0,43,0.00,,,0.01,VWS V14.01,2013-10-20 21:01:00,
2013-10-20 17:02:00,58.3,36.2,29.96,NNE,28,0.0,0.0,44,0.00,,,0.01,VWS V14.01,2013-10-20 21:02:00,
2013-10-20 17:03:00,58.3,36.3,29.96,NNE,28,0.0,0.0,44,0.00,,,0.01,VWS V14.01,2013-10-20 21:03:00,
2013-10-20 17:04:00,58.2,37.2,29.96,NNE,28,0.0,0.0,45,0.00,,,0.01,VWS V14.01,2013-10-20 21:04:00,
2013-10-20 17:05:00,58.2,36.6,29.96,NNE,28,0.0,0.0,44,0.00,,,0.01,VWS V14.01,2013-10-20 21:05:00,
2013-10-20 17:06:00,58.2,36.5,29.96,NNE,28,0.0,0.0,44,0.00,,,0.01,VWS V14.01,2013-10-20 21:06:00,
2013-10-20 17:07:00,58.2,36.6,29.97,NNE,28,0.0,0.0,44,0.00,,,0.01,VWS V14.01,2013-10-20 21:07:00,
2013-10-20 17:08:00,58.2,37.2,29.96,NNE,28,0.0,0.0,45,0.00,,,0.01,VWS V14.01,2013-10-20 21:08:00,
2013-10-20 17:09:00,58.0,36.2,29.97,NNE,28,0.0,0.0,44,0.00,,,0.01,VWS V14.01,2013-10-20 21:09:00,
2013-10-20 17:10:00,58.0,36.1,29.96,NNE,28,0.0,0.0,44,0.00,,,0.01,VWS V14.01,2013-10-20 21:10:00,
2013-10-20 17:11:00,58.0,36.3,29.96,NNE,28,0.0,0.0,44,0.00,,,0.01,VWS V14.01,2013-10-20 21:11:00,
2013-10-20 17:12:00,58.0,36.3,29.96,NNE,28,0.0,0.0,44,0.00,,,0.01,VWS V14.01,2013-10-20 21:12:00,
2013-10-20 17:13:00,58.0,36.2,29.97,NNE,28,0.0,0.0,44,0.00,,,0.01,VWS V14.01,2013-10-20 21:13:00,
2013-10-20 17:14:00,57.9,36.8,29.97,NNE,28,0.0,0.0,45,0.00,,,0.01,VWS V14.01,2013-10-20 21:14:00,
2013-10-20 17:15:00,58.0,36.8,29.96,NNE,28,0.0,0.0,45,0.00,,,0.01,VWS V14.01,2013-10-20 21:15:00,
2013-10-20 17:16:00,58.0,37.0,29.97,NNE,28,0.0,0.0,45,0.00,,,0.01,VWS V14.01,2013-10-20 21:16:00,
2013-10-20 17:17:00,57.9,36.1,29.97,NNE,28,0.0,0.0,44,0.00,,,0.01,VWS V14.01,2013-10-20 21:17:00,
2013-10-20 17:18:00,57.9,36.8,29.97,NNE,28,0.0,0.0,45,0.00,,,0.01,VWS V14.01,2013-10-20 21:18:00,
2013-10-20 17:19:00,57.7,35.7,29.97,NNE,28,0.0,0.0,44,0.00,,,0.01,VWS V14.01,2013-10-20 21:19:00,
2013-10-20 17:20:00,57.9,36.6,29.97,NNE,28,0.0,0.0,45,0.00,,,0.01,VWS V14.01,2013-10-20 21:20:00,
2013-10-20 17:21:00,57.8,35.6,29.97,NNE,28,0.0,0.0,43,0.00,,,0.01,VWS V14.01,2013-10-20 21:21:00,
2013-10-20 17:22:00,57.8,36.0,29.97,NNE,28,0.0,0.0,44,0.00,,,0.01,VWS V14.01,2013-10-20 21:22:00,
2013-10-20 17:23:00,57.7,35.7,29.97,NNE,28,0.0,0.0,44,0.00,,,0.01,VWS V14.01,2013-10-20 21:23:00,
2013-10-20 17:24:00,57.7,36.4,29.97,NNE,28,0.0,0.0,45,0.00,,,0.01,VWS V14.01,2013-10-20 21:24:00,
2013-10-20 17:25:00,57.7,36.6,29.97,NNE,28,0.0,0.0,45,0.00,,,0.01,VWS V14.01,2013-10-20 21:25:00,
2013-10-20 17:26:00,57.6,36.0,29.97,NNE,28,0.0,0.0,44,0.00,,,0.01,VWS V14.01,2013-10-20 21:26:00,
2013-10-20 17:27:00,57.7,36.1,29.97,NNE,28,0.0,0.0,44,0.00,,,0.01,VWS V14.01,2013-10-20 21:27:00,
2013-10-20 17:28:00,57.7,36.4,29.97,NNE,28,0.0,0.0,45,0.00,,,0.01,VWS V14.01,2013-10-20 21:28:00,
2013-10-20 17:29:00,57.4,36.6,29.97,NNE,28,0.0,0.0,46,0.00,,,0.01,VWS V14.01,2013-10-20 21:29:00,
2013-10-20 17:30:00,57.5,36.2,29.97,NNE,28,0.0,0.0,45,0.00,,,0.01,VWS V14.01,2013-10-20 21:30:00,
2013-10-20 17:31:00,57.5,36.3,29.97,NNE,28,0.0,0.0,45,0.00,,,0.01,VWS V14.01,2013-10-20 21:31:00,
2013-10-20 17:32:00,57.5,36.5,29.97,NNE,28,0.0,0.0,45,0.00,,,0.01,VWS V14.01,2013-10-20 21:32:00,
2013-10-20 17:33:00,57.4,36.6,29.97,NNE,28,0.0,0.0,46,0.00,,,0.01,VWS V14.01,2013-10-20 21:33:00,
2013-10-20 17:34:00,57.2,36.8,29.97,NNE,28,0.0,0.0,46,0.00,,,0.01,VWS V14.01,2013-10-20 21:34:00,
2013-10-20 17:35:00,57.4,36.4,29.97,NNE,28,0.0,0.0,45,0.00,,,0.01,VWS V14.01,2013-10-20 21:35:00,
2013-10-20 17:36:00,57.4,36.8,29.97,NNE,28,0.0,0.0,46,0.00,,,0.01,VWS V14.01,2013-10-20 21:36:00,
2013-10-20 17:37:00,57.3,36.6,29.97,NNE,28,0.0,0.0,46,0.00,,,0.01,VWS V14.01,2013-10-20 21:37:00,
2013-10-20 17:38:00,57.2,36.8,29.97,NNE,28,0.0,0.0,46,0.00,,,0.01,VWS V14.01,2013-10-20 21:38:00,
2013-10-20 17:39:00,57.1,37.0,29.97,NNE,28,0.0,0.0,47,0.00,,,0.01,VWS V14.01,2013-10-20 21:39:00,
2013-10-20 17:40:00,57.2,37.0,29.98,NNE,28,0.0,2.5,47,0.00,,,0.01,VWS V14.01,2013-10-20 21:40:00,
2013-10-20 17:41:00,57.2,36.9,29.98,NNE,28,0.0,0.0,46,0.00,,,0.01,VWS V14.01,2013-10-20 21:41:00,
2013-10-20 17:42:00,57.2,37.0,29.98,NNE,28,0.0,0.0,47,0.00,,,0.01,VWS V14.01,2013-10-20 21:42:00,
2013-10-20 17:43:00,57.1,37.0,29.98,NNE,28,0.0,0.0,47,0.00,,,0.01,VWS V14.01,2013-10-20 21:43:00,
2013-10-20 17:44:00,57.0,36.7,29.98,NNE,28,0.0,0.0,46,0.00,,,0.01,VWS V14.01,2013-10-20 21:44:00,
2013-10-20 17:45:00,57.1,36.9,29.98,NNE,28,0.0,0.0,47,0.00,,,0.01,VWS V14.01,2013-10-20 21:45:00,
2013-10-20 17:46:00,57.0,36.5,29.98,NNE,28,0.0,0.0,46,0.00,,,0.01,VWS V14.01,2013-10-20 21:46:00,
2013-10-20 17:47:00,57.0,36.4,29.98,NNE,28,0.0,0.0,46,0.00,,,0.01,VWS V14.01,2013-10-20 21:47:00,
2013-10-20 17:48:00,57.0,36.7,29.98,NNE,28,0.0,0.0,46,0.00,,,0.01,VWS V14.01,2013-10-20 21:48:00,
2013-10-20 17:49:00,56.8,37.0,29.98,NNE,28,0.0,0.0,47,0.00,,,0.01,VWS V14.01,2013-10-20 21:49:00,
2013-10-20 17:50:00,56.9,36.8,29.98,NNE,28,0.0,0.0,47,0.00,,,0.01,VWS V14.01,2013-10-20 21:50:00,
2013-10-20 17:51:00,56.8,36.9,29.98,NNE,28,0.0,0.0,47,0.00,,,0.01,VWS V14.01,2013-10-20 21:51:00,
2013-10-20 17:52:00,56.9,37.0,29.98,NNE,28,0.0,0.0,47,0.00,,,0.01,VWS V14.01,2013-10-20 21:52:00,
2013-10-20 17:53:00,56.8,37.0,29.98,NNE,28,0.0,0.0,47,0.00,,,0.01,VWS V14.01,2013-10-20 21:53:00,
2013-10-20 17:54:00,56.6,37.0,29.98,NNE,28,0.0,0.0,48,0.00,,,0.01,VWS V14.01,2013-10-20 21:54:00,
2013-10-20 17:55:00,56.7,36.9,29.98,NNE,28,0.0,0.0,47,0.00,,,0.01,VWS V14.01,2013-10-20 21:55:00,
2013-10-20 17:56:00,56.6,36.6,29.98,NNE,28,0.0,0.0,47,0.00,,,0.01,VWS V14.01,2013-10-20 21:56:00,
2013-10-20 17:57:00,56.6,36.6,29.98,NNE,28,0.0,0.0,47,0.00,,,0.01,VWS V14.01,2013-10-20 21:57:00,
2013-10-20 17:58:00,56.6,37.0,29.98,NNE,28,0.0,0.0,48,0.00,,,0.01,VWS V14.01,2013-10-20 21:58:00,
2013-10-20 17:59:00,56.4,37.4,29.98,NNE,28,0.0,0.0,49,0.00,,,0.01,VWS V14.01,2013-10-20 21:59:00,
2013-10-20 18:00:00,56.4,37.0,29.98,NNE,28,0.0,0.0,48,0.00,,,0.01,VWS V14.01,2013-10-20 22:00:00,
2013-10-20 18:01:00,56.4,37.1,29.98,NNE,28,0.0,0.0,48,0.00,,,0.01,VWS V14.01,2013-10-20 22:01:00,
2013-10-20 18:02:00,56.3,37.2,29.98,NNE,28,0.0,0.0,49,0.00,,,0.01,VWS V14.01,2013-10-20 22:02:00,
2013-10-20 18:03:00,56.4,37.4,29.98,NNE,28,0.0,0.0,49,0.00,,,0.01,VWS V14.01,2013-10-20 22:03:00,
2013-10-20 18:04:00,56.0,37.3,29.98,NNE,28,0.0,0.0,49,0.00,,,0.01,VWS V14.01,2013-10-20 22:04:00,
2013-10-20 18:05:00,56.1,37.4,29.98,NNE,28,0.0,0.0,49,0.00,,,0.01,VWS V14.01,2013-10-20 22:05:00,
2013-10-20 18:06:00,56.2,37.4,29.98,NNE,28,0.0,0.0,49,0.00,,,0.01,VWS V14.01,2013-10-20 22:06:00,
2013-10-20 18:07:00,56.1,37.4,29.98,NNE,28,0.0,0.0,49,0.00,,,0.01,VWS V14.01,2013-10-20 22:07:00,
2013-10-20 18:08:00,56.0,37.3,29.98,NNE,28,0.0,0.0,49,0.00,,,0.01,VWS V14.01,2013-10-20 22:08:00,
2013-10-20 18:09:00,55.7,37.1,29.99,NNE,28,0.0,0.0,50,0.00,,,0.01,VWS V14.01,2013-10-20 22:09:00,
2013-10-20 18:10:00,55.9,37.5,29.99,NNE,28,0.0,0.0,50,0.00,,,0.01,VWS V14.01,2013-10-20 22:10:00,
2013-10-20 18:11:00,55.8,37.2,29.99,NNE,28,0.0,0.0,50,0.00,,,0.01,VWS V14.01,2013-10-20 22:11:00,
2013-10-20 18:12:00,55.7,37.1,29.98,NNE,28,0.0,0.0,49,0.00,,,0.01,VWS V14.01,2013-10-20 22:12:00,
2013-10-20 18:13:00,55.7,37.1,29.99,NNE,28,0.0,0.0,50,0.00,,,0.01,VWS V14.01,2013-10-20 22:13:00,
2013-10-20 18:14:00,55.3,37.7,29.99,NNE,28,0.0,0.0,51,0.00,,,0.01,VWS V14.01,2013-10-20 22:14:00,
2013-10-20 18:15:00,55.5,37.3,29.99,NNE,28,0.0,0.0,50,0.00,,,0.01,VWS V14.01,2013-10-20 22:15:00,
2013-10-20 18:16:00,55.4,37.5,29.99,NNE,28,0.0,0.0,51,0.00,,,0.01,VWS V14.01,2013-10-20 22:16:00,
2013-10-20 18:17:00,55.4,37.6,29.99,NNE,28,0.0,0.0,51,0.00,,,0.01,VWS V14.01,2013-10-20 22:17:00,
2013-10-20 18:18:00,55.3,37.7,29.99,NNE,28,0.0,0.0,51,0.00,,,0.01,VWS V14.01,2013-10-20 22:18:00,
2013-10-20 18:19:00,54.9,37.9,29.99,NNE,28,0.0,0.0,53,0.00,,,0.01,VWS V14.01,2013-10-20 22:19:00,
2013-10-20 18:20:00,55.3,38.1,29.99,NNE,28,0.0,0.0,52,0.00,,,0.01,VWS V14.01,2013-10-20 22:20:00,
2013-10-20 18:21:00,55.1,38.0,29.99,NNE,28,0.0,0.0,52,0.00,,,0.01,VWS V14.01,2013-10-20 22:21:00,
2013-10-20 18:22:00,55.0,37.9,29.99,NNE,28,0.0,0.0,52,0.00,,,0.01,VWS V14.01,2013-10-20 22:22:00,
2013-10-20 18:23:00,54.9,37.9,29.99,NNE,28,0.0,0.0,53,0.00,,,0.01,VWS V14.01,2013-10-20 22:23:00,
2013-10-20 18:24:00,54.5,37.7,30.00,NNE,28,0.0,0.0,53,0.00,,,0.01,VWS V14.01,2013-10-20 22:24:00,
2013-10-20 18:25:00,54.9,38.2,29.99,NNE,28,0.0,0.0,53,0.00,,,0.01,VWS V14.01,2013-10-20 22:25:00,
2013-10-20 18:26:00,54.7,38.2,29.99,NNE,28,0.0,0.0,54,0.00,,,0.01,VWS V14.01,2013-10-20 22:26:00,
2013-10-20 18:27:00,54.7,38.3,29.99,NNE,28,0.0,0.0,54,0.00,,,0.01,VWS V14.01,2013-10-20 22:27:00,
2013-10-20 18:28:00,54.5,37.7,30.00,NNE,28,0.0,0.0,53,0.00,,,0.01,VWS V14.01,2013-10-20 22:28:00,
2013-10-20 18:29:00,54.2,38.1,30.00,NNE,28,0.0,0.0,54,0.00,,,0.01,VWS V14.01,2013-10-20 22:29:00,
2013-10-20 18:30:00,54.6,38.3,30.00,NNE,28,0.0,0.0,54,0.00,,,0.01,VWS V14.01,2013-10-20 22:30:00,
2013-10-20 18:31:00,54.5,38.3,30.00,NNE,28,0.0,0.0,54,0.00,,,0.01,VWS V14.01,2013-10-20 22:31:00,
2013-10-20 18:32:00,54.4,38.3,30.00,NNE,28,0.0,0.0,54,0.00,,,0.01,VWS V14.01,2013-10-20 22:32:00,
2013-10-20 18:33:00,54.2,38.1,30.00,NNE,28,0.0,0.0,54,0.00,,,0.01,VWS V14.01,2013-10-20 22:33:00,
2013-10-20 18:34:00,54.1,38.2,30.00,NNE,28,0.0,0.0,55,0.00,,,0.01,VWS V14.01,2013-10-20 22:34:00,
2013-10-20 18:35:00,54.2,38.1,30.00,NNE,28,0.0,0.0,54,0.00,,,0.01,VWS V14.01,2013-10-20 22:35:00,
2013-10-20 18:36:00,54.2,38.2,30.00,NNE,28,0.0,0.0,54,0.00,,,0.01,VWS V14.01,2013-10-20 22:36:00,
2013-10-20 18:37:00,54.1,38.2,30.00,NNE,28,0.0,0.0,55,0.00,,,0.01,VWS V14.01,2013-10-20 22:37:00,
2013-10-20 18:38:00,54.1,38.2,30.00,NNE,28,0.0,0.0,55,0.00,,,0.01,VWS V14.01,2013-10-20 22:38:00,
2013-10-20 18:39:00,54.0,38.2,30.00,NNE,28,0.0,0.0,55,0.00,,,0.01,VWS V14.01,2013-10-20 22:39:00,
2013-10-20 18:40:00,53.9,38.1,30.00,NNE,28,0.0,0.0,55,0.00,,,0.01,VWS V14.01,2013-10-20 22:40:00,
2013-10-20 18:41:00,54.0,38.2,30.00,NNE,28,0.0,0.0,55,0.00,,,0.01,VWS V14.01,2013-10-20 22:41:00,
2013-10-20 18:42:00,53.9,38.1,30.00,NNE,28,0.0,0.0,55,0.00,,,0.01,VWS V14.01,2013-10-20 22:42:00,
2013-10-20 18:43:00,53.9,38.0,30.00,NNE,28,0.0,0.0,55,0.00,,,0.01,VWS V14.01,2013-10-20 22:43:00,
2013-10-20 18:44:00,53.9,38.1,30.00,NNE,28,0.0,0.0,55,0.00,,,0.01,VWS V14.01,2013-10-20 22:44:00,
2013-10-20 18:45:00,53.6,38.4,30.00,NNE,28,0.0,0.0,56,0.00,,,0.01,VWS V14.01,2013-10-20 22:45:00,
2013-10-20 18:46:00,53.9,38.2,30.00,NNE,28,0.0,0.0,55,0.00,,,0.01,VWS V14.01,2013-10-20 22:46:00,
2013-10-20 18:47:00,53.8,38.3,30.00,NNE,28,0.0,0.0,56,0.00,,,0.01,VWS V14.01,2013-10-20 22:47:00,
2013-10-20 18:48:00,53.8,38.4,30.00,NNE,28,0.0,0.0,56,0.00,,,0.01,VWS V14.01,2013-10-20 22:48:00,
2013-10-20 18:49:00,53.6,38.4,30.00,NNE,28,0.0,0.0,56,0.00,,,0.01,VWS V14.01,2013-10-20 22:49:00,
2013-10-20 18:50:00,53.5,39.2,30.00,NNE,28,0.0,0.0,58,0.00,,,0.01,VWS V14.01,2013-10-20 22:50:00,
2013-10-20 18:51:00,53.7,38.8,30.01,NNE,28,0.0,0.0,57,0.00,,,0.01,VWS V14.01,2013-10-20 22:51:00,
2013-10-20 18:52:00,53.5,38.8,30.01,NNE,28,0.0,0.0,57,0.00,,,0.01,VWS V14.01,2013-10-20 22:52:00,
2013-10-20 18:53:00,53.5,39.0,30.01,NNE,28,0.0,0.0,58,0.00,,,0.01,VWS V14.01,2013-10-20 22:53:00,
2013-10-20 18:54:00,53.5,39.2,30.00,NNE,28,0.0,0.0,58,0.00,,,0.01,VWS V14.01,2013-10-20 22:54:00,
2013-10-20 18:55:00,53.3,39.7,30.00,NNE,28,0.0,0.0,60,0.00,,,0.01,VWS V14.01,2013-10-20 22:55:00,
2013-10-20 18:56:00,53.5,39.5,30.00,NNE,28,0.0,0.0,59,0.00,,,0.01,VWS V14.01,2013-10-20 22:56:00,
2013-10-20 18:57:00,53.4,39.5,30.00,NNE,28,0.0,0.0,59,0.00,,,0.01,VWS V14.01,2013-10-20 22:57:00,
2013-10-20 18:58:00,53.3,39.7,30.00,NNE,28,0.0,0.0,60,0.00,,,0.01,VWS V14.01,2013-10-20 22:58:00,
2013-10-20 18:59:00,53.3,39.7,30.00,NNE,28,0.0,0.0,60,0.00,,,0.01,VWS V14.01,2013-10-20 22:59:00,
2013-10-20 19:00:00,52.9,39.7,30.01,NNE,28,0.0,0.0,61,0.00,,,0.01,VWS V14.01,2013-10-20 23:00:00,
2013-10-20 19:01:00,53.3,39.7,30.01,NNE,28,0.0,0.0,60,0.00,,,0.01,VWS V14.01,2013-10-20 23:01:00,
2013-10-20 19:02:00,53.1,39.8,30.01,NNE,28,0.0,0.0,60,0.00,,,0.01,VWS V14.01,2013-10-20 23:02:00,
2013-10-20 19:03:00,53.0,39.7,30.01,NNE,28,0.0,0.0,60,0.00,,,0.01,VWS V14.01,2013-10-20 23:03:00,
2013-10-20 19:04:00,52.9,39.7,30.01,NNE,28,0.0,0.0,61,0.00,,,0.01,VWS V14.01,2013-10-20 23:04:00,
2013-10-20 19:05:00,52.8,39.6,30.01,NNE,28,0.0,0.0,61,0.00,,,0.01,VWS V14.01,2013-10-20 23:05:00,
2013-10-20 19:06:00,53.0,39.8,30.01,NNE,28,0.0,0.0,61,0.00,,,0.01,VWS V14.01,2013-10-20 23:06:00,
2013-10-20 19:07:00,52.9,39.8,30.01,NNE,28,0.0,0.0,61,0.00,,,0.01,VWS V14.01,2013-10-20 23:07:00,
2013-10-20 19:08:00,52.8,39.6,30.01,NNE,28,0.0,0.0,61,0.00,,,0.01,VWS V14.01,2013-10-20 23:08:00,
2013-10-20 19:09:00,52.8,39.6,30.01,NNE,28,0.0,0.0,61,0.00,,,0.01,VWS V14.01,2013-10-20 23:09:00,
2013-10-20 19:10:00,52.6,39.5,30.01,NNE,28,0.0,0.0,61,0.00,,,0.01,VWS V14.01,2013-10-20 23:10:00,
2013-10-20 19:11:00,52.8,39.6,30.01,NNE,28,0.0,0.0,61,0.00,,,0.01,VWS V14.01,2013-10-20 23:11:00,
2013-10-20 19:12:00,52.8,39.7,30.01,NNE,28,0.0,0.0,61,0.00,,,0.01,VWS V14.01,2013-10-20 23:12:00,
2013-10-20 19:13:00,52.7,39.6,30.01,NNE,28,0.0,0.0,61,0.00,,,0.01,VWS V14.01,2013-10-20 23:13:00,
2013-10-20 19:14:00,52.6,39.5,30.01,NNE,28,0.0,0.0,61,0.00,,,0.01,VWS V14.01,2013-10-20 23:14:00,
2013-10-20 19:15:00,52.5,39.7,30.01,NNE,28,0.0,0.0,62,0.00,,,0.01,VWS V14.01,2013-10-20 23:15:00,
2013-10-20 19:16:00,52.6,39.6,30.01,NNE,28,0.0,0.0,61,0.00,,,0.01,VWS V14.01,2013-10-20 23:16:00,
2013-10-20 19:17:00,52.5,39.5,30.01,NNE,28,0.0,0.0,61,0.00,,,0.01,VWS V14.01,2013-10-20 23:17:00,
2013-10-20 19:18:00,52.7,39.8,30.01,NNE,28,0.0,0.0,61,0.00,,,0.01,VWS V14.01,2013-10-20 23:18:00,
2013-10-20 19:19:00,52.5,39.7,30.01,NNE,28,0.0,0.0,62,0.00,,,0.01,VWS V14.01,2013-10-20 23:19:00,
2013-10-20 19:20:00,52.3,39.8,30.01,NNE,28,0.0,0.0,62,0.00,,,0.01,VWS V14.01,2013-10-20 23:20:00,
2013-10-20 19:21:00,52.3,39.7,30.01,NNE,28,0.0,0.0,62,0.00,,,0.01,VWS V14.01,2013-10-20 23:21:00,
2013-10-20 19:22:00,52.4,39.7,30.01,NNE,28,0.0,0.0,62,0.00,,,0.01,VWS V14.01,2013-10-20 23:22:00,
2013-10-20 19:23:00,52.4,39.8,30.01,NNE,28,0.0,0.0,62,0.00,,,0.01,VWS V14.01,2013-10-20 23:23:00,
2013-10-20 19:24:00,52.3,39.8,30.01,NNE,28,0.0,0.0,62,0.00,,,0.01,VWS V14.01,2013-10-20 23:24:00,
2013-10-20 19:25:00,52.2,40.2,30.02,NNE,28,0.0,0.0,63,0.00,,,0.01,VWS V14.01,2013-10-20 23:25:00,
2013-10-20 19:26:00,52.2,39.9,30.01,NNE,28,0.0,0.0,63,0.00,,,0.01,VWS V14.01,2013-10-20 23:26:00,
2013-10-20 19:27:00,52.3,40.0,30.01,NNE,28,0.0,0.0,63,0.00,,,0.01,VWS V14.01,2013-10-20 23:27:00,
2013-10-20 19:28:00,52.3,40.1,30.01,NNE,28,0.0,0.0,63,0.00,,,0.01,VWS V14.01,2013-10-20 23:28:00,
2013-10-20 19:29:00,52.2,40.2,30.02,NNE,28,0.0,0.0,63,0.00,,,0.01,VWS V14.01,2013-10-20 23:29:00,
2013-10-20 19:30:00,52.0,40.5,30.02,NNE,28,0.0,0.0,65,0.00,,,0.01,VWS V14.01,2013-10-20 23:30:00,
2013-10-20 19:31:00,51.9,40.0,30.02,NNE,28,0.0,0.0,64,0.00,,,0.01,VWS V14.01,2013-10-20 23:31:00,
2013-10-20 19:32:00,52.0,40.5,30.02,NNE,28,0.0,0.0,65,0.00,,,0.01,VWS V14.01,2013-10-20 23:32:00,
2013-10-20 19:33:00,52.1,40.7,30.02,NNE,28,0.0,0.0,65,0.00,,,0.01,VWS V14.01,2013-10-20 23:33:00,
2013-10-20 19:34:00,52.0,40.5,30.02,NNE,28,0.0,0.0,65,0.00,,,0.01,VWS V14.01,2013-10-20 23:34:00,
2013-10-20 19:35:00,51.9,40.5,30.02,NNE,28,0.0,0.0,65,0.00,,,0.01,VWS V14.01,2013-10-20 23:35:00,
2013-10-20 19:36:00,51.9,40.6,30.02,NNE,28,0.0,0.0,65,0.00,,,0.01,VWS V14.01,2013-10-20 23:36:00,
2013-10-20 19:37:00,52.0,40.7,30.01,NNE,28,0.0,0.0,65,0.00,,,0.01,VWS V14.01,2013-10-20 23:37:00,
2013-10-20 19:38:00,51.8,40.5,30.02,NNE,28,0.0,0.0,65,0.00,,,0.01,VWS V14.01,2013-10-20 23:38:00,
2013-10-20 19:39:00,51.9,40.5,30.02,NNE,28,0.0,0.0,65,0.00,,,0.01,VWS V14.01,2013-10-20 23:39:00,
2013-10-20 19:40:00,51.7,40.6,30.02,NNE,28,0.0,0.0,66,0.00,,,0.01,VWS V14.01,2013-10-20 23:40:00,
2013-10-20 19:41:00,51.7,40.2,30.02,NNE,28,0.0,0.0,65,0.00,,,0.01,VWS V14.01,2013-10-20 23:41:00,
2013-10-20 19:42:00,51.7,40.4,30.02,NNE,28,0.0,0.0,65,0.00,,,0.01,VWS V14.01,2013-10-20 23:42:00,
2013-10-20 19:43:00,51.7,40.5,30.02,NNE,28,0.0,0.0,65,0.00,,,0.01,VWS V14.01,2013-10-20 23:43:00,
2013-10-20 19:44:00,51.7,40.6,30.02,NNE,28,0.0,0.0,66,0.00,,,0.01,VWS V14.01,2013-10-20 23:44:00,
2013-10-20 19:45:00,51.5,41.0,30.02,NNE,28,0.0,0.0,67,0.00,,,0.01,VWS V14.01,2013-10-20 23:45:00,
2013-10-20 19:46:00,51.6,40.9,30.02,NNE,28,0.0,0.0,67,0.00,,,0.01,VWS V14.01,2013-10-20 23:46:00,
2013-10-20 19:47:00,51.5,41.0,30.02,NNE,28,0.0,0.0,67,0.00,,,0.01,VWS V14.01,2013-10-20 23:47:00,
2013-10-20 19:48:00,51.6,41.1,30.02,NNE,28,0.0,0.0,67,0.00,,,0.01,VWS V14.01,2013-10-20 23:48:00,
2013-10-20 19:49:00,51.5,41.0,30.02,NNE,28,0.0,0.0,67,0.00,,,0.01,VWS V14.01,2013-10-20 23:49:00,
2013-10-20 19:50:00,51.3,41.0,30.02,NNE,28,0.0,0.0,68,0.00,,,0.01,VWS V14.01,2013-10-20 23:50:00,
2013-10-20 19:51:00,51.3,40.8,30.02,NNE,28,0.0,0.0,67,0.00,,,0.01,VWS V14.01,2013-10-20 23:51:00,
2013-10-20 19:52:00,51.3,40.9,30.02,NNE,28,0.0,0.0,67,0.00,,,0.01,VWS V14.01,2013-10-20 23:52:00,
2013-10-20 19:53:00,51.3,40.9,30.02,NNE,28,0.0,0.0,68,0.00,,,0.01,VWS V14.01,2013-10-20 23:53:00,
2013-10-20 19:54:00,51.3,41.0,30.02,NNE,28,0.0,0.0,68,0.00,,,0.01,VWS V14.01,2013-10-20 23:54:00,
2013-10-20 19:55:00,51.1,40.9,30.02,NNE,28,0.0,0.0,68,0.00,,,0.01,VWS V14.01,2013-10-20 23:55:00,
2013-10-20 19:56:00,51.3,41.0,30.02,NNE,28,0.0,0.0,68,0.00,,,0.01,VWS V14.01,2013-10-20 23:56:00,
2013-10-20 19:57:00,51.1,40.9,30.02,NNE,28,0.0,0.0,68,0.00,,,0.01,VWS V14.01,2013-10-20 23:57:00,
2013-10-20 19:58:00,51.2,41.0,30.02,NNE,28,0.0,0.0,68,0.00,,,0.01,VWS V14.01,2013-10-20 23:58:00,
2013-10-20 19:59:00,51.1,40.9,30.02,NNE,28,0.0,0.0,68,0.00,,,0.01,VWS V14.01,2013-10-20 23:59:00,
2013-10-20 20:00:00,50.9,40.8,30.02,NNE,28,0.0,0.0,68,0.00,,,0.01,VWS V14.01,2013-10-21 00:00:00,
2013-10-20 20:01:00,51.0,40.9,30.02,NNE,28,0.0,0.0,68,0.00,,,0.01,VWS V14.01,2013-10-21 00:01:00,
2013-10-20 20:02:00,51.0,41.0,30.02,NNE,28,0.0,0.0,68,0.00,,,0.01,VWS V14.01,2013-10-21 00:02:00,
2013-10-20 20:03:00,50.9,40.9,30.02,NNE,28,0.0,0.0,68,0.00,,,0.01,VWS V14.01,2013-10-21 00:03:00,
2013-10-20 20:04:00,50.9,40.8,30.02,NNE,28,0.0,0.0,68,0.00,,,0.01,VWS V14.01,2013-10-21 00:04:00,
2013-10-20 20:05:00,50.7,40.5,30.02,NNE,28,0.0,0.0,68,0.00,,,0.01,VWS V14.01,2013-10-21 00:05:00,
2013-10-20 20:06:00,50.8,40.7,30.02,NNE,28,0.0,0.0,68,0.00,,,0.01,VWS V14.01,2013-10-21 00:06:00,
2013-10-20 20:07:00,50.7,40.5,30.02,NNE,28,0.0,0.0,68,0.00,,,0.01,VWS V14.01,2013-10-21 00:07:00,
2013-10-20 20:08:00,50.8,40.6,30.02,NNE,28,0.0,0.0,68,0.00,,,0.01,VWS V14.01,2013-10-21 00:08:00,
2013-10-20 20:09:00,50.7,40.5,30.02,NNE,28,0.0,0.0,68,0.00,,,0.01,VWS V14.01,2013-10-21 00:09:00,
2013-10-20 20:10:00,50.6,40.5,30.02,NNE,28,0.0,0.0,68,0.00,,,0.01,VWS V14.01,2013-10-21 00:10:00,
2013-10-20 20:11:00,50.6,40.3,30.02,NNE,28,0.0,0.0,68,0.00,,,0.01,VWS V14.01,2013-10-21 00:11:00,
2013-10-20 20:12:00,50.7,40.4,30.02,NNE,28,0.0,0.0,68,0.00,,,0.01,VWS V14.01,2013-10-21 00:12:00,
2013-10-20 20:13:00,50.6,40.3,30.02,NNE,28,0.0,0.0,68,0.00,,,0.01,VWS V14.01,2013-10-21 00:13:00,
2013-10-20 20:14:00,50.6,40.5,30.02,NNE,28,0.0,0.0,68,0.00,,,0.01,VWS V14.01,2013-10-21 00:14:00,
2013-10-20 20:15:00,50.5,40.9,30.03,NNE,28,0.0,0.0,69,0.00,,,0.01,VWS V14.01,2013-10-21 00:15:00,
2013-10-20 20:16:00,50.6,40.7,30.02,NNE,28,0.0,0.0,69,0.00,,,0.01,VWS V14.01,2013-10-21 00:16:00,
2013-10-20 20:17:00,50.5,40.7,30.02,NNE,28,0.0,0.0,69,0.00,,,0.01,VWS V14.01,2013-10-21 00:17:00,
2013-10-20 20:18:00,50.4,40.7,30.02,NNE,28,0.0,0.0,69,0.00,,,0.01,VWS V14.01,2013-10-21 00:18:00,
2013-10-20 20:19:00,50.5,40.9,30.03,NNE,28,0.0,0.0,69,0.00,,,0.01,VWS V14.01,2013-10-21 00:19:00,
2013-10-20 20:20:00,50.3,40.8,30.02,NNE,28,0.0,0.0,70,0.00,,,0.01,VWS V14.01,2013-10-21 00:20:00,
2013-10-20 20:21:00,50.4,40.8,30.02,NNE,28,0.0,0.0,70,0.00,,,0.01,VWS V14.01,2013-10-21 00:21:00,
2013-10-20 20:22:00,50.4,40.9,30.03,NNE,28,0.0,0.0,70,0.00,,,0.01,VWS V14.01,2013-10-21 00:22:00,
2013-10-20 20:23:00,50.3,40.9,30.02,NNE,28,0.0,0.0,70,0.00,,,0.01,VWS V14.01,2013-10-21 00:23:00,
2013-10-20 20:24:00,50.3,40.8,30.02,NNE,28,0.0,0.0,70,0.00,,,0.01,VWS V14.01,2013-10-21 00:24:00,
2013-10-20 20:25:00,50.2,41.4,30.03,NNE,28,0.0,0.0,72,0.00,,,0.01,VWS V14.01,2013-10-21 00:25:00,
2013-10-20 20:26:00,50.3,40.9,30.03,NNE,28,0.0,0.0,70,0.00,,,0.01,VWS V14.01,2013-10-21 00:26:00,
2013-10-20 20:27:00,50.2,41.0,30.03,NNE,28,0.0,0.0,70,0.00,,,0.01,VWS V14.01,2013-10-21 00:27:00,
2013-10-20 20:28:00,50.2,41.2,30.03,NNE,28,0.0,0.0,71,0.00,,,0.01,VWS V14.01,2013-10-21 00:28:00,
2013-10-20 20:29:00,50.2,41.4,30.03,NNE,28,0.0,0.0,72,0.00,,,0.01,VWS V14.01,2013-10-21 00:29:00,
2013-10-20 20:30:00,49.8,41.0,30.03,NNE,28,0.0,0.0,72,0.00,,,0.01,VWS V14.01,2013-10-21 00:30:00,
2013-10-20 20:31:00,50.0,41.2,30.03,NNE,28,0.0,0.0,72,0.00,,,0.01,VWS V14.01,2013-10-21 00:31:00,
2013-10-20 20:32:00,50.0,41.2,30.03,NNE,28,0.0,0.0,72,0.00,,,0.01,VWS V14.01,2013-10-21 00:32:00,
2013-10-20 20:33:00,50.0,41.2,30.03,NNE,28,0.0,0.0,72,0.00,,,0.01,VWS V14.01,2013-10-21 00:33:00,
2013-10-20 20:34:00,49.8,41.0,30.03,NNE,28,0.0,0.0,72,0.00,,,0.01,VWS V14.01,2013-10-21 00:34:00,
2013-10-20 20:35:00,49.8,41.6,30.03,NNE,28,0.0,0.0,73,0.00,,,0.01,VWS V14.01,2013-10-21 00:35:00,
2013-10-20 20:36:00,49.9,41.3,30.03,NNE,28,0.0,0.0,72,0.00,,,0.01,VWS V14.01,2013-10-21 00:36:00,
2013-10-20 20:37:00,49.9,41.5,30.03,NNE,28,0.0,0.0,73,0.00,,,0.01,VWS V14.01,2013-10-21 00:37:00,
2013-10-20 20:38:00,49.8,41.5,30.03,NNE,28,0.0,0.0,73,0.00,,,0.01,VWS V14.01,2013-10-21 00:38:00,
2013-10-20 20:39:00,49.8,41.6,30.03,NNE,28,0.0,0.0,73,0.00,,,0.01,VWS V14.01,2013-10-21 00:39:00,
2013-10-20 20:40:00,49.6,41.6,30.03,NNE,28,0.0,0.0,74,0.00,,,0.01,VWS V14.01,2013-10-21 00:40:00,
2013-10-20 20:41:00,49.7,41.6,30.03,NNE,28,0.0,0.0,74,0.00,,,0.01,VWS V14.01,2013-10-21 00:41:00,
2013-10-20 20:42:00,49.7,41.6,30.03,NNE,28,0.0,0.0,74,0.00,,,0.01,VWS V14.01,2013-10-21 00:42:00,
2013-10-20 20:43:00,49.6,41.6,30.03,NNE,28,0.0,0.0,74,0.00,,,0.01,VWS V14.01,2013-10-21 00:43:00,
2013-10-20 20:44:00,49.6,41.6,30.03,NNE,28,0.0,0.0,74,0.00,,,0.01,VWS V14.01,2013-10-21 00:44:00,
2013-10-20 20:45:00,49.4,41.4,30.03,NNE,28,0.0,0.0,74,0.00,,,0.01,VWS V14.01,2013-10-21 00:45:00,
2013-10-20 20:46:00,49.6,41.7,30.03,NNE,28,0.0,0.0,74,0.00,,,0.01,VWS V14.01,2013-10-21 00:46:00,
2013-10-20 20:47:00,49.6,41.7,30.03,NNE,28,0.0,0.0,74,0.00,,,0.01,VWS V14.01,2013-10-21 00:47:00,
2013-10-20 20:48:00,49.5,41.6,30.03,NNE,28,0.0,0.0,74,0.00,,,0.01,VWS V14.01,2013-10-21 00:48:00,
2013-10-20 20:49:00,49.4,41.4,30.03,NNE,28,0.0,0.0,74,0.00,,,0.01,VWS V14.01,2013-10-21 00:49:00,
2013-10-20 20:50:00,49.5,41.8,30.03,NNE,28,0.0,0.0,75,0.00,,,0.01,VWS V14.01,2013-10-21 00:50:00,
2013-10-20 20:51:00,49.6,41.6,30.03,NNE,28,0.0,0.0,74,0.00,,,0.01,VWS V14.01,2013-10-21 00:51:00,
2013-10-20 20:52:00,49.5,41.5,30.03,NNE,28,0.0,0.0,74,0.00,,,0.01,VWS V14.01,2013-10-21 00:52:00,
2013-10-20 20:53:00,49.4,41.5,30.03,NNE,28,0.0,0.0,74,0.00,,,0.01,VWS V14.01,2013-10-21 00:53:00,
2013-10-20 20:54:00,49.5,41.8,30.03,NNE,28,0.0,0.0,75,0.00,,,0.01,VWS V14.01,2013-10-21 00:54:00,
2013-10-20 20:55:00,49.2,41.7,30.04,NNE,28,0.0,0.0,75,0.00,,,0.01,VWS V14.01,2013-10-21 00:55:00,
2013-10-20 20:56:00,49.3,41.7,30.03,NNE,28,0.0,0.0,75,0.00,,,0.01,VWS V14.01,2013-10-21 00:56:00,
2013-10-20 20:57:00,49.4,41.8,30.03,NNE,28,0.0,0.0,75,0.00,,,0.01,VWS V14.01,2013-10-21 00:57:00,
2013-10-20 20:58:00,49.3,41.8,30.03,NNE,28,0.0,0.0,75,0.00,,,0.01,VWS V14.01,2013-10-21 00:58:00,
2013-10-20 20:59:00,49.2,41.7,30.04,NNE,28,0.0,0.0,75,0.00,,,0.01,VWS V14.01,2013-10-21 00:59:00,
2013-10-20 21:00:00,49.0,41.8,30.04,NNE,28,0.0,0.0,76,0.00,,,0.01,VWS V14.01,2013-10-21 01:00:00,
2013-10-20 21:01:00,49.2,41.7,30.03,NNE,28,0.0,0.0,75,0.00,,,0.01,VWS V14.01,2013-10-21 01:01:00,
2013-10-20 21:02:00,49.2,41.9,30.04,NNE,28,0.0,0.0,76,0.00,,,0.01,VWS V14.01,2013-10-21 01:02:00,
2013-10-20 21:03:00,49.1,41.8,30.04,NNE,28,0.0,0.0,76,0.00,,,0.01,VWS V14.01,2013-10-21 01:03:00,
2013-10-20 21:04:00,49.0,41.8,30.04,NNE,28,0.0,0.0,76,0.00,,,0.01,VWS V14.01,2013-10-21 01:04:00,
2013-10-20 21:05:00,48.8,41.7,30.04,NNE,28,0.0,0.0,76,0.00,,,0.01,VWS V14.01,2013-10-21 01:05:00,
2013-10-20 21:06:00,48.9,41.8,30.04,NNE,28,0.0,0.0,76,0.00,,,0.01,VWS V14.01,2013-10-21 01:06:00,
2013-10-20 21:07:00,48.9,41.8,30.04,NNE,28,0.0,0.0,76,0.00,,,0.01,VWS V14.01,2013-10-21 01:07:00,
2013-10-20 21:08:00,48.8,41.7,30.04,NNE,28,0.0,0.0,76,0.00,,,0.01,VWS V14.01,2013-10-21 01:08:00,
2013-10-20 21:09:00,48.8,41.7,30.04,NNE,28,0.0,0.0,76,0.00,,,0.01,VWS V14.01,2013-10-21 01:09:00,
2013-10-20 21:10:00,48.6,41.6,30.04,NNE,28,0.0,0.0,77,0.00,,,0.01,VWS V14.01,2013-10-21 01:10:00,
2013-10-20 21:11:00,48.7,41.6,30.04,NNE,28,0.0,0.0,76,0.00,,,0.01,VWS V14.01,2013-10-21 01:11:00,
2013-10-20 21:12:00,48.7,41.6,30.04,NNE,28,0.0,0.0,76,0.00,,,0.01,VWS V14.01,2013-10-21 01:12:00,
2013-10-20 21:13:00,48.6,41.5,30.04,NNE,28,0.0,0.0,76,0.00,,,0.01,VWS V14.01,2013-10-21 01:13:00,
2013-10-20 21:14:00,48.6,41.6,30.04,NNE,28,0.0,0.0,77,0.00,,,0.01,VWS V14.01,2013-10-21 01:14:00,
2013-10-20 21:15:00,48.4,41.6,30.04,NNE,28,0.0,0.0,77,0.00,,,0.01,VWS V14.01,2013-10-21 01:15:00,
2013-10-20 21:16:00,48.5,41.6,30.04,NNE,28,0.0,0.0,77,0.00,,,0.01,VWS V14.01,2013-10-21 01:16:00,
2013-10-20 21:17:00,48.5,41.5,30.04,NNE,28,0.0,0.0,77,0.00,,,0.01,VWS V14.01,2013-10-21 01:17:00,
2013-10-20 21:18:00,48.5,41.7,30.04,NNE,28,0.0,0.0,77,0.00,,,0.01,VWS V14.01,2013-10-21 01:18:00,
2013-10-20 21:19:00,48.4,41.6,30.04,NNE,28,0.0,0.0,77,0.00,,,0.01,VWS V14.01,2013-10-21 01:19:00,
2013-10-20 21:20:00,48.2,41.4,30.04,NNE,28,0.0,0.0,77,0.00,,,0.01,VWS V14.01,2013-10-21 01:20:00,
2013-10-20 21:21:00,48.4,41.6,30.04,NNE,28,0.0,0.0,77,0.00,,,0.01,VWS V14.01,2013-10-21 01:21:00,
2013-10-20 21:22:00,48.3,41.5,30.04,NNE,28,0.0,0.0,77,0.00,,,0.01,VWS V14.01,2013-10-21 01:22:00,
2013-10-20 21:23:00,48.3,41.5,30.04,NNE,28,0.0,0.0,77,0.00,,,0.01,VWS V14.01,2013-10-21 01:23:00,
2013-10-20 21:24:00,48.2,41.4,30.04,NNE,28,0.0,0.0,77,0.00,,,0.01,VWS V14.01,2013-10-21 01:24:00,
2013-10-20 21:25:00,48.1,41.4,30.05,NNE,28,0.0,0.0,78,0.00,,,0.01,VWS V14.01,2013-10-21 01:25:00,
2013-10-20 21:26:00,48.2,41.5,30.04,NNE,28,0.0,0.0,77,0.00,,,0.01,VWS V14.01,2013-10-21 01:26:00,
2013-10-20 21:27:00,48.2,41.5,30.04,NNE,28,0.0,0.0,77,0.00,,,0.01,VWS V14.01,2013-10-21 01:27:00,
2013-10-20 21:28:00,48.2,41.6,30.04,NNE,28,0.0,0.0,78,0.00,,,0.01,VWS V14.01,2013-10-21 01:28:00,
2013-10-20 21:29:00,48.1,41.4,30.05,NNE,28,0.0,0.0,78,0.00,,,0.01,VWS V14.01,2013-10-21 01:29:00,
2013-10-20 21:30:00,48.0,41.6,30.05,NNE,28,0.0,0.0,78,0.00,,,0.01,VWS V14.01,2013-10-21 01:30:00,
2013-10-20 21:31:00,48.1,41.5,30.05,NNE,28,0.0,0.0,78,0.00,,,0.01,VWS V14.01,2013-10-21 01:31:00,
2013-10-20 21:32:00,48.1,41.6,30.05,NNE,28,0.0,0.0,78,0.00,,,0.01,VWS V14.01,2013-10-21 01:32:00,
2013-10-20 21:33:00,48.0,41.5,30.05,NNE,28,0.0,0.0,78,0.00,,,0.01,VWS V14.01,2013-10-21 01:33:00,
2013-10-20 21:34:00,48.0,41.6,30.05,NNE,28,0.0,0.0,78,0.00,,,0.01,VWS V14.01,2013-10-21 01:34:00,
2013-10-20 21:35:00,47.9,41.6,30.05,NNE,28,0.0,0.0,79,0.00,,,0.01,VWS V14.01,2013-10-21 01:35:00,
2013-10-20 21:36:00,47.9,41.5,30.05,NNE,28,0.0,0.0,78,0.00,,,0.01,VWS V14.01,2013-10-21 01:36:00,
2013-10-20 21:37:00,47.9,41.5,30.05,NNE,28,0.0,0.0,78,0.00,,,0.01,VWS V14.01,2013-10-21 01:37:00,
2013-10-20 21:38:00,47.9,41.5,30.05,NNE,28,0.0,0.0,78,0.00,,,0.01,VWS V14.01,2013-10-21 01:38:00,
2013-10-20 21:39:00,47.9,41.6,30.05,NNE,28,0.0,0.0,79,0.00,,,0.01,VWS V14.01,2013-10-21 01:39:00,
2013-10-20 21:40:00,47.7,41.8,30.05,NNE,28,0.0,0.0,80,0.00,,,0.01,VWS V14.01,2013-10-21 01:40:00,
2013-10-20 21:41:00,47.8,41.7,30.05,NNE,28,0.0,0.0,79,0.00,,,0.01,VWS V14.01,2013-10-21 01:41:00,
2013-10-20 21:42:00,47.8,41.8,30.05,NNE,28,0.0,0.0,80,0.00,,,0.01,VWS V14.01,2013-10-21 01:42:00,
2013-10-20 21:43:00,47.8,41.8,30.05,NNE,28,0.0,0.0,80,0.00,,,0.01,VWS V14.01,2013-10-21 01:43:00,
2013-10-20 21:44:00,47.7,41.8,30.05,NNE,28,0.0,0.0,80,0.00,,,0.01,VWS V14.01,2013-10-21 01:44:00,
2013-10-20 21:45:00,47.6,41.9,30.05,NNE,28,0.0,0.0,80,0.00,,,0.01,VWS V14.01,2013-10-21 01:45:00,
2013-10-20 21:46:00,47.7,41.8,30.05,NNE,28,0.0,0.0,80,0.00,,,0.01,VWS V14.01,2013-10-21 01:46:00,
2013-10-20 21:47:00,47.7,41.8,30.05,NNE,28,0.0,0.0,80,0.00,,,0.01,VWS V14.01,2013-10-21 01:47:00,
2013-10-20 21:48:00,47.6,41.8,30.05,NNE,28,0.0,0.0,80,0.00,,,0.01,VWS V14.01,2013-10-21 01:48:00,
2013-10-20 21:49:00,47.6,41.9,30.05,NNE,28,0.0,0.0,80,0.00,,,0.01,VWS V14.01,2013-10-21 01:49:00,
2013-10-20 21:50:00,47.5,41.9,30.05,NNE,28,0.0,0.0,81,0.00,,,0.01,VWS V14.01,2013-10-21 01:50:00,
2013-10-20 21:51:00,47.5,41.9,30.05,NNE,28,0.0,0.0,81,0.00,,,0.01,VWS V14.01,2013-10-21 01:51:00,
2013-10-20 21:52:00,47.5,41.9,30.05,NNE,28,0.0,0.0,81,0.00,,,0.01,VWS V14.01,2013-10-21 01:52:00,
2013-10-20 21:53:00,47.5,41.9,30.05,NNE,28,0.0,0.0,81,0.00,,,0.01,VWS V14.01,2013-10-21 01:53:00,
2013-10-20 21:54:00,47.5,41.9,30.05,NNE,28,0.0,0.0,81,0.00,,,0.01,VWS V14.01,2013-10-21 01:54:00,
2013-10-20 21:55:00,47.4,41.7,30.06,NNE,28,0.0,0.0,80,0.00,,,0.01,VWS V14.01,2013-10-21 01:55:00,
2013-10-20 21:56:00,47.5,41.9,30.06,NNE,28,0.0,0.0,81,0.00,,,0.01,VWS V14.01,2013-10-21 01:56:00,
2013-10-20 21:57:00,47.4,41.8,30.06,NNE,28,0.0,0.0,81,0.00,,,0.01,VWS V14.01,2013-10-21 01:57:00,
2013-10-20 21:58:00,47.4,41.8,30.06,NNE,28,0.0,0.0,81,0.00,,,0.01,VWS V14.01,2013-10-21 01:58:00,
2013-10-20 21:59:00,47.4,41.7,30.06,NNE,28,0.0,0.0,80,0.00,,,0.01,VWS V14.01,2013-10-21 01:59:00,
2013-10-20 22:00:00,47.3,41.5,30.06,NNE,28,0.0,0.0,80,0.00,,,0.01,VWS V14.01,2013-10-21 02:00:00,
2013-10-20 22:01:00,47.3,41.6,30.06,NNE,28,0.0,0.0,80,0.00,,,0.01,VWS V14.01,2013-10-21 02:01:00,
2013-10-20 22:02:00,47.3,41.5,30.06,NNE,28,0.0,0.0,80,0.00,,,0.01,VWS V14.01,2013-10-21 02:02:00,
2013-10-20 22:03:00,47.3,41.5,30.06,NNE,28,0.0,0.0,80,0.00,,,0.01,VWS V14.01,2013-10-21 02:03:00,
2013-10-20 22:04:00,47.3,41.5,30.06,NNE,28,0.0,0.0,80,0.00,,,0.01,VWS V14.01,2013-10-21 02:04:00,
2013-10-20 22:05:00,47.3,41.4,30.06,NNE,28,0.0,0.0,80,0.00,,,0.01,VWS V14.01,2013-10-21 02:05:00,
2013-10-20 22:06:00,47.3,41.4,30.06,NNE,28,0.0,0.0,80,0.00,,,0.01,VWS V14.01,2013-10-21 02:06:00,
2013-10-20 22:07:00,47.2,41.3,30.06,NNE,28,0.0,0.0,80,0.00,,,0.01,VWS V14.01,2013-10-21 02:07:00,
2013-10-20 22:08:00,47.3,41.3,30.06,NNE,28,0.0,0.0,80,0.00,,,0.01,VWS V14.01,2013-10-21 02:08:00,
2013-10-20 22:09:00,47.3,41.4,30.06,NNE,28,0.0,0.0,80,0.00,,,0.01,VWS V14.01,2013-10-21 02:09:00,
2013-10-20 22:10:00,47.2,41.3,30.06,NNE,28,0.0,0.0,80,0.00,,,0.01,VWS V14.01,2013-10-21 02:10:00,
2013-10-20 22:11:00,47.2,41.3,30.06,NNE,28,0.0,0.0,80,0.00,,,0.01,VWS V14.01,2013-10-21 02:11:00,
2013-10-20 22:12:00,47.2,41.3,30.06,NNE,28,0.0,0.0,80,0.00,,,0.01,VWS V14.01,2013-10-21 02:12:00,
2013-10-20 22:13:00,47.2,41.3,30.06,NNE,28,0.0,0.0,80,0.00,,,0.01,VWS V14.01,2013-10-21 02:13:00,
2013-10-20 22:14:00,47.2,41.3,30.06,NNE,28,0.0,0.0,80,0.00,,,0.01,VWS V14.01,2013-10-21 02:14:00,
2013-10-20 22:15:00,47.1,41.3,30.06,NNE,28,0.0,0.0,80,0.00,,,0.01,VWS V14.01,2013-10-21 02:15:00,
2013-10-20 22:16:00,47.1,41.2,30.06,NNE,28,0.0,0.0,80,0.00,,,0.01,VWS V14.01,2013-10-21 02:16:00,
2013-10-20 22:17:00,47.1,41.3,30.06,NNE,28,0.0,0.0,80,0.00,,,0.01,VWS V14.01,2013-10-21 02:17:00,
2013-10-20 22:18:00,47.1,41.4,30.06,NNE,28,0.0,0.0,80,0.00,,,0.01,VWS V14.01,2013-10-21 02:18:00,
2013-10-20 22:19:00,47.1,41.3,30.06,NNE,28,0.0,0.0,80,0.00,,,0.01,VWS V14.01,2013-10-21 02:19:00,
2013-10-20 22:20:00,47.0,41.5,30.06,NNE,28,0.0,0.0,81,0.00,,,0.01,VWS V14.01,2013-10-21 02:20:00,
2013-10-20 22:21:00,47.1,41.4,30.06,NNE,28,0.0,0.0,80,0.00,,,0.01,VWS V14.01,2013-10-21 02:21:00,
2013-10-20 22:22:00,47.1,41.4,30.06,NNE,28,0.0,0.0,80,0.00,,,0.01,VWS V14.01,2013-10-21 02:22:00,
2013-10-20 22:23:00,47.0,41.4,30.06,NNE,28,0.0,0.0,81,0.00,,,0.01,VWS V14.01,2013-10-21 02:23:00,
2013-10-20 22:24:00,47.0,41.5,30.06,NNE,28,0.0,0.0,81,0.00,,,0.01,VWS V14.01,2013-10-21 02:24:00,
2013-10-20 22:25:00,47.0,42.1,30.06,NNE,28,0.0,0.0,83,0.00,,,0.01,VWS V14.01,2013-10-21 02:25:00,
2013-10-20 22:26:00,47.0,41.8,30.06,NNE,28,0.0,0.0,82,0.00,,,0.01,VWS V14.01,2013-10-21 02:26:00,
2013-10-20 22:27:00,47.0,41.9,30.06,NNE,28,0.0,0.0,82,0.00,,,0.01,VWS V14.01,2013-10-21 02:27:00,
2013-10-20 22:28:00,47.0,42.0,30.06,NNE,28,0.0,0.0,83,0.00,,,0.01,VWS V14.01,2013-10-21 02:28:00,
2013-10-20 22:29:00,47.0,42.1,30.06,NNE,28,0.0,0.0,83,0.00,,,0.01,VWS V14.01,2013-10-21 02:29:00,
2013-10-20 22:30:00,46.9,42.1,30.06,NNE,28,0.0,0.0,83,0.00,,,0.01,VWS V14.01,2013-10-21 02:30:00,
2013-10-20 22:31:00,46.9,42.0,30.06,NNE,28,0.0,0.0,83,0.00,,,0.01,VWS V14.01,2013-10-21 02:31:00,
2013-10-20 22:32:00,46.9,42.1,30.06,NNE,28,0.0,0.0,83,0.00,,,0.01,VWS V14.01,2013-10-21 02:32:00,
2013-10-20 22:33:00,46.9,42.1,30.06,NNE,28,0.0,0.0,83,0.00,,,0.01,VWS V14.01,2013-10-21 02:33:00,
2013-10-20 22:34:00,46.9,42.1,30.06,NNE,28,0.0,0.0,83,0.00,,,0.01,VWS V14.01,2013-10-21 02:34:00,
2013-10-20 22:35:00,46.8,42.1,30.06,NNE,28,0.0,0.0,84,0.00,,,0.01,VWS V14.01,2013-10-21 02:35:00,
2013-10-20 22:36:00,46.9,42.2,30.06,NNE,28,0.0,0.0,84,0.00,,,0.01,VWS V14.01,2013-10-21 02:36:00,
2013-10-20 22:37:00,46.8,42.1,30.06,NNE,28,0.0,0.0,84,0.00,,,0.01,VWS V14.01,2013-10-21 02:37:00,
2013-10-20 22:38:00,46.8,42.1,30.06,NNE,28,0.0,0.0,84,0.00,,,0.01,VWS V14.01,2013-10-21 02:38:00,
2013-10-20 22:39:00,46.8,42.1,30.06,NNE,28,0.0,0.0,84,0.00,,,0.01,VWS V14.01,2013-10-21 02:39:00,
2013-10-20 22:40:00,46.8,42.3,30.06,NNE,28,0.0,0.0,84,0.00,,,0.01,VWS V14.01,2013-10-21 02:40:00,
2013-10-20 22:41:00,46.8,42.2,30.06,NNE,28,0.0,0.0,84,0.00,,,0.01,VWS V14.01,2013-10-21 02:41:00,
2013-10-20 22:42:00,46.8,42.2,30.06,NNE,28,0.0,0.0,84,0.00,,,0.01,VWS V14.01,2013-10-21 02:42:00,
2013-10-20 22:43:00,46.8,42.3,30.06,NNE,28,0.0,0.0,84,0.00,,,0.01,VWS V14.01,2013-10-21 02:43:00,
2013-10-20 22:44:00,46.8,42.3,30.06,NNE,28,0.0,0.0,84,0.00,,,0.01,VWS V14.01,2013-10-21 02:44:00,
2013-10-20 22:45:00,46.7,42.1,30.06,NNE,28,0.0,0.0,84,0.00,,,0.01,VWS V14.01,2013-10-21 02:45:00,
2013-10-20 22:46:00,46.7,42.2,30.06,NNE,28,0.0,0.0,84,0.00,,,0.01,VWS V14.01,2013-10-21 02:46:00,
2013-10-20 22:47:00,46.7,42.1,30.06,NNE,28,0.0,0.0,84,0.00,,,0.01,VWS V14.01,2013-10-21 02:47:00,
2013-10-20 22:48:00,46.7,42.2,30.06,NNE,28,0.0,0.0,84,0.00,,,0.01,VWS V14.01,2013-10-21 02:48:00,
2013-10-20 22:49:00,46.7,42.1,30.06,NNE,28,0.0,0.0,84,0.00,,,0.01,VWS V14.01,2013-10-21 02:49:00,
2013-10-20 22:50:00,46.6,42.2,30.06,NNE,28,0.0,0.0,84,0.00,,,0.01,VWS V14.01,2013-10-21 02:50:00,
2013-10-20 22:51:00,46.7,42.1,30.06,NNE,28,0.0,0.0,84,0.00,,,0.01,VWS V14.01,2013-10-21 02:51:00,
2013-10-20 22:52:00,46.7,42.1,30.06,NNE,28,0.0,0.0,84,0.00,,,0.01,VWS V14.01,2013-10-21 02:52:00,
2013-10-20 22:53:00,46.7,42.1,30.06,NNE,28,0.0,0.0,84,0.00,,,0.01,VWS V14.01,2013-10-21 02:53:00,
2013-10-20 22:54:00,46.6,42.2,30.06,NNE,28,0.0,0.0,84,0.00,,,0.01,VWS V14.01,2013-10-21 02:54:00,
2013-10-20 22:55:00,46.6,42.6,30.06,NNE,28,0.0,0.0,86,0.00,,,0.01,VWS V14.01,2013-10-21 02:55:00,
2013-10-20 22:56:00,46.7,42.5,30.06,NNE,28,0.0,0.0,85,0.00,,,0.01,VWS V14.01,2013-10-21 02:56:00,
2013-10-20 22:57:00,46.6,42.5,30.06,NNE,28,0.0,0.0,86,0.00,,,0.01,VWS V14.01,2013-10-21 02:57:00,
2013-10-20 22:58:00,46.6,42.6,30.06,NNE,28,0.0,0.0,86,0.00,,,0.01,VWS V14.01,2013-10-21 02:58:00,
2013-10-20 22:59:00,46.6,42.6,30.06,NNE,28,0.0,0.0,86,0.00,,,0.01,VWS V14.01,2013-10-21 02:59:00,
2013-10-20 23:00:00,46.4,42.7,30.07,NNE,28,0.0,0.0,87,0.00,,,0.01,VWS V14.01,2013-10-21 03:00:00,
2013-10-20 23:01:00,46.5,42.6,30.06,NNE,28,0.0,0.0,86,0.00,,,0.01,VWS V14.01,2013-10-21 03:01:00,
2013-10-20 23:02:00,46.5,42.6,30.06,NNE,28,0.0,0.0,86,0.00,,,0.01,VWS V14.01,2013-10-21 03:02:00,
2013-10-20 23:03:00,46.4,42.6,30.06,NNE,28,0.0,0.0,86,0.00,,,0.01,VWS V14.01,2013-10-21 03:03:00,
2013-10-20 23:04:00,46.4,42.7,30.07,NNE,28,0.0,0.0,87,0.00,,,0.01,VWS V14.01,2013-10-21 03:04:00,
2013-10-20 23:05:00,46.4,42.7,30.07,NNE,28,0.0,0.0,87,0.00,,,0.01,VWS V14.01,2013-10-21 03:05:00,
2013-10-20 23:06:00,46.4,42.8,30.07,NNE,28,0.0,0.0,87,0.00,,,0.01,VWS V14.01,2013-10-21 03:06:00,
2013-10-20 23:07:00,46.4,42.8,30.07,NNE,28,0.0,0.0,87,0.00,,,0.01,VWS V14.01,2013-10-21 03:07:00,
2013-10-20 23:08:00,46.4,42.7,30.07,NNE,28,0.0,0.0,87,0.00,,,0.01,VWS V14.01,2013-10-21 03:08:00,
2013-10-20 23:09:00,46.4,42.7,30.07,NNE,28,0.0,0.0,87,0.00,,,0.01,VWS V14.01,2013-10-21 03:09:00,
2013-10-20 23:10:00,46.3,42.5,30.07,NNE,28,0.0,0.0,86,0.00,,,0.01,VWS V14.01,2013-10-21 03:10:00,
2013-10-20 23:11:00,46.4,42.7,30.06,NNE,28,0.0,0.0,87,0.00,,,0.01,VWS V14.01,2013-10-21 03:11:00,
2013-10-20 23:12:00,46.4,42.6,30.07,NNE,28,0.0,0.0,87,0.00,,,0.01,VWS V14.01,2013-10-21 03:12:00,
2013-10-20 23:13:00,46.4,42.6,30.07,NNE,28,0.0,0.0,87,0.00,,,0.01,VWS V14.01,2013-10-21 03:13:00,
2013-10-20 23:14:00,46.3,42.5,30.07,NNE,28,0.0,0.0,86,0.00,,,0.01,VWS V14.01,2013-10-21 03:14:00,
2013-10-20 23:15:00,46.3,42.2,30.06,NNE,28,0.0,0.0,85,0.00,,,0.01,VWS V14.01,2013-10-21 03:15:00,
2013-10-20 23:16:00,46.4,42.5,30.07,NNE,28,0.0,0.0,86,0.00,,,0.01,VWS V14.01,2013-10-21 03:16:00,
2013-10-20 23:17:00,46.3,42.4,30.07,NNE,28,0.0,0.0,86,0.00,,,0.01,VWS V14.01,2013-10-21 03:17:00,
2013-10-20 23:18:00,46.3,42.3,30.07,NNE,28,0.0,0.0,86,0.00,,,0.01,VWS V14.01,2013-10-21 03:18:00,
2013-10-20 23:19:00,46.3,42.2,30.06,NNE,28,0.0,0.0,85,0.00,,,0.01,VWS V14.01,2013-10-21 03:19:00,
2013-10-20 23:20:00,46.3,41.9,30.07,NNE,28,0.0,0.0,85,0.00,,,0.01,VWS V14.01,2013-10-21 03:20:00,
2013-10-20 23:21:00,46.3,42.1,30.06,NNE,28,0.0,0.0,85,0.00,,,0.01,VWS V14.01,2013-10-21 03:21:00,
2013-10-20 23:22:00,46.3,42.0,30.06,NNE,28,0.0,0.0,85,0.00,,,0.01,VWS V14.01,2013-10-21 03:22:00,
2013-10-20 23:23:00,46.3,42.0,30.06,NNE,28,0.0,0.0,85,0.00,,,0.01,VWS V14.01,2013-10-21 03:23:00,
2013-10-20 23:24:00,46.3,41.9,30.07,NNE,28,0.0,0.0,85,0.00,,,0.01,VWS V14.01,2013-10-21 03:24:00,
2013-10-20 23:25:00,46.3,41.5,30.06,NNE,28,0.0,0.0,83,0.00,,,0.01,VWS V14.01,2013-10-21 03:25:00,
2013-10-20 23:26:00,46.3,41.8,30.06,NNE,28,0.0,0.0,84,0.00,,,0.01,VWS V14.01,2013-10-21 03:26:00,
2013-10-20 23:27:00,46.3,41.8,30.07,NNE,28,0.0,0.0,84,0.00,,,0.01,VWS V14.01,2013-10-21 03:27:00,
2013-10-20 23:28:00,46.3,41.6,30.07,NNE,28,0.0,0.0,84,0.00,,,0.01,VWS V14.01,2013-10-21 03:28:00,
2013-10-20 23:29:00,46.3,41.5,30.06,NNE,28,0.0,0.0,83,0.00,,,0.01,VWS V14.01,2013-10-21 03:29:00,
2013-10-20 23:30:00,46.3,41.7,30.07,NNE,28,0.0,0.0,84,0.00,,,0.01,VWS V14.01,2013-10-21 03:30:00,
2013-10-20 23:31:00,46.4,41.6,30.07,NNE,28,0.0,0.0,83,0.00,,,0.01,VWS V14.01,2013-10-21 03:31:00,
2013-10-20 23:32:00,46.3,41.5,30.07,NNE,28,0.0,0.0,83,0.00,,,0.01,VWS V14.01,2013-10-21 03:32:00,
2013-10-20 23:33:00,46.3,41.6,30.06,NNE,28,0.0,0.0,84,0.00,,,0.01,VWS V14.01,2013-10-21 03:33:00,
2013-10-20 23:34:00,46.3,41.7,30.07,NNE,28,0.0,0.0,84,0.00,,,0.01,VWS V14.01,2013-10-21 03:34:00,
2013-10-20 23:35:00,46.3,42.2,30.07,NNE,28,0.0,0.0,85,0.00,,,0.01,VWS V14.01,2013-10-21 03:35:00,
2013-10-20 23:36:00,46.3,41.8,30.07,NNE,28,0.0,0.0,84,0.00,,,0.01,VWS V14.01,2013-10-21 03:36:00,
2013-10-20 23:37:00,46.3,41.9,30.07,NNE,28,0.0,0.0,85,0.00,,,0.01,VWS V14.01,2013-10-21 03:37:00,
2013-10-20 23:38:00,46.3,42.0,30.07,NNE,28,0.0,0.0,85,0.00,,,0.01,VWS V14.01,2013-10-21 03:38:00,
2013-10-20 23:39:00,46.3,42.2,30.07,NNE,28,0.0,0.0,85,0.00,,,0.01,VWS V14.01,2013-10-21 03:39:00,
2013-10-20 23:40:00,46.3,42.5,30.07,NNE,28,0.0,0.0,86,0.00,,,0.01,VWS V14.01,2013-10-21 03:40:00,
2013-10-20 23:41:00,46.3,42.3,30.07,NNE,28,0.0,0.0,86,0.00,,,0.01,VWS V14.01,2013-10-21 03:41:00,
2013-10-20 23:42:00,46.2,42.2,30.07,NNE,28,0.0,0.0,86,0.00,,,0.01,VWS V14.01,2013-10-21 03:42:00,
2013-10-20 23:43:00,46.3,42.4,30.07,NNE,28,0.0,0.0,86,0.00,,,0.01,VWS V14.01,2013-10-21 03:43:00,
2013-10-20 23:44:00,46.3,42.5,30.07,NNE,28,0.0,0.0,86,0.00,,,0.01,VWS V14.01,2013-10-21 03:44:00,
2013-10-20 23:45:00,46.2,42.4,30.07,NNE,28,0.0,0.0,87,0.00,,,0.01,VWS V14.01,2013-10-21 03:45:00,
2013-10-20 23:46:00,46.2,42.4,30.07,NNE,28,0.0,0.0,86,0.00,,,0.01,VWS V14.01,2013-10-21 03:46:00,
2013-10-20 23:47:00,46.2,42.4,30.07,NNE,28,0.0,0.0,86,0.00,,,0.01,VWS V14.01,2013-10-21 03:47:00,
2013-10-20 23:48:00,46.2,42.4,30.07,NNE,28,0.0,0.0,86,0.00,,,0.01,VWS V14.01,2013-10-21 03:48:00,
2013-10-20 23:49:00,46.2,42.4,30.07,NNE,28,0.0,0.0,87,0.00,,,0.01,VWS V14.01,2013-10-21 03:49:00,
2013-10-20 23:50:00,46.2,42.6,30.07,NNE,28,0.0,0.0,87,0.00,,,0.01,VWS V14.01,2013-10-21 03:50:00,
2013-10-20 23:51:00,46.2,42.6,30.07,NNE,28,0.0,0.0,87,0.00,,,0.01,VWS V14.01,2013-10-21 03:51:00,
2013-10-20 23:52:00,46.2,42.6,30.07,NNE,28,0.0,0.0,87,0.00,,,0.01,VWS V14.01,2013-10-21 03:52:00,
2013-10-20 23:53:00,46.2,42.6,30.07,NNE,28,0.0,0.0,87,0.00,,,0.01,VWS V14.01,2013-10-21 03:53:00,
2013-10-20 23:54:00,46.2,42.6,30.07,NNE,28,0.0,0.0,87,0.00,,,0.01,VWS V14.01,2013-10-21 03:54:00,
2013-10-20 23:55:00,46.1,42.6,30.07,NNE,28,0.0,0.0,87,0.00,,,0.01,VWS V14.01,2013-10-21 03:55:00,
2013-10-20 23:56:00,46.1,42.5,30.07,NNE,28,0.0,0.0,87,0.00,,,0.01,VWS V14.01,2013-10-21 03:56:00,
2013-10-20 23:57:00,46.1,42.6,30.07,NNE,28,0.0,0.0,88,0.00,,,0.01,VWS V14.01,2013-10-21 03:57:00,
2013-10-20 23:58:00,46.1,42.6,30.07,NNE,28,0.0,0.0,87,0.00,,,0.01,VWS V14.01,2013-10-21 03:58:00,
2013-10-20 23:59:00,46.1,42.6,30.07,NNE,28,0.0,0.0,87,0.00,,,0.01,VWS V14.01,2013-10-21 03:59:00,